Data for 09/26/2007

Time Sea-Level Adjusted Pressure Absolute Pressure Temperature Relative Humidity Dew Point Precipitation   
(mb) (inHg) (mb) (inHg) (C) (F) (%) (C) (F) (mm) (in)
00:01 1023 30.21 852 25.16 7.7 45.8 61 0.6 33 0
00:02 1023 30.21 852 25.16 7.8 46 60 0.6 33 0
00:03 1023 30.21 852 25.16 7.9 46.2 60 0.6 33.1 0
00:04 1023 30.21 852 25.16 7.9 46.3 60 0.6 33.1 0
00:05 1023 30.21 852 25.16 8 46.3 60 0.7 33.3 0
00:06 1023 30.21 852 25.16 8 46.4 59 0.5 33 0
00:07 1023 30.21 852 25.16 8 46.5 58 0.3 32.6 0
00:08 1023 30.21 852 25.16 8.1 46.5 59 0.5 32.8 0
00:09 1023 30.21 852 25.16 8.1 46.5 59 0.6 33 0
00:10 1023 30.21 852 25.16 8 46.4 58 0.4 32.7 0
00:11 1023 30.21 852 25.16 8 46.4 58 0.3 32.6 0
00:12 1023 30.21 852 25.16 8 46.4 58 0.4 32.6 0
00:13 1023 30.21 852 25.16 8 46.4 58 0.2 32.3 0
00:14 1023 30.21 852 25.16 8.1 46.5 55 -0.4 31.2 0
00:15 1023 30.21 852 25.16 8.3 46.9 55 -0.3 31.5 0
00:16 1023 30.21 852 25.16 8.4 47.2 54 -0.3 31.5 0
00:17 1023 30.21 852 25.16 8.6 47.4 53 -0.3 31.4 0
00:18 1023 30.21 852 25.16 8.6 47.5 52 -0.6 30.9 0
00:19 1023 30.21 852 25.16 8.7 47.7 53 -0.4 31.3 0
00:20 1023 30.21 852 25.16 8.8 47.8 53 -0.4 31.4 0
00:21 1023 30.21 852 25.16 8.8 47.9 53 -0.3 31.5 0
00:22 1023 30.21 852 25.16 8.8 47.9 52 -0.4 31.3 0
00:23 1023 30.21 852 25.16 8.8 47.9 53 -0.2 31.6 0
00:24 1023 30.21 852 25.16 8.8 47.8 54 -0.1 31.8 0
00:25 1023 30.21 852 25.16 8.7 47.6 53 -0.3 31.5 0
00:26 1023 30.21 852 25.16 8.6 47.5 54 -0.2 31.6 0
00:27 1023 30.21 852 25.16 8.6 47.4 53 -0.3 31.4 0
00:28 1023 30.21 852 25.16 8.5 47.3 53 -0.4 31.3 0
00:29 1023 30.21 852 25.16 8.5 47.3 54 -0.4 31.3 0
00:30 1023 30.21 852 25.16 8.5 47.2 54 -0.3 31.5 0
00:31 1023 30.21 852 25.16 8.4 47.2 55 -0.1 31.8 0
00:32 1023 30.21 852 25.16 8.3 47 55 -0.3 31.5 0
00:33 1023 30.21 852 25.16 8.3 46.9 55 -0.2 31.6 0
00:34 1023 30.21 852 25.16 8.3 46.9 54 -0.4 31.3 0
00:35 1023 30.21 852 25.16 8.3 46.9 54 -0.5 31.2 0
00:36 1023 30.21 852 25.16 8.3 46.9 54 -0.4 31.2 0
00:37 1023 30.21 852 25.16 8.3 47 54 -0.3 31.4 0
00:38 1023 30.21 852 25.16 8.4 47.1 54 -0.4 31.4 0
00:39 1023 30.21 852 25.16 8.4 47.1 54 -0.2 31.6 0
00:40 1023 30.21 852 25.16 8.4 47.1 55 -0.2 31.7 0
00:41 1023 30.21 852 25.16 8.3 47 55 -0.1 31.8 0
00:42 1023 30.21 852 25.16 8.2 46.8 55 -0.2 31.7 0
00:43 1023 30.21 852 25.16 8.2 46.7 56 -0.1 31.8 0
00:44 1023 30.21 852 25.16 8.1 46.5 56 -0.2 31.7 0
00:45 1023 30.21 852 25.16 8 46.4 56 -0.2 31.7 0
00:46 1023 30.21 852 25.16 8 46.3 56 -0.2 31.6 0
00:47 1023 30.21 852 25.16 8 46.3 56 -0.3 31.4 0
00:48 1023 30.21 852 25.16 8 46.3 56 -0.3 31.5 0
00:49 1023 30.21 852 25.16 8 46.3 55 -0.4 31.3 0
00:50 1023 30.21 852 25.16 8 46.3 56 -0.2 31.6 0
00:51 1023 30.21 852 25.16 7.9 46.3 56 -0.3 31.4 0
00:52 1023 30.21 852 25.16 7.9 46.3 56 -0.3 31.4 0
00:53 1023 30.21 852 25.16 7.9 46.3 56 -0.3 31.5 0
00:54 1023 30.21 852 25.16 7.9 46.2 56 -0.3 31.4 0
00:55 1023 30.21 852 25.16 7.9 46.2 57 -0.1 31.8 0
00:56 1023 30.21 852 25.16 7.9 46.1 58 0.2 32.3 0
00:57 1023 30.21 852 25.16 7.8 46 59 0.4 32.6 0
00:58 1023 30.21 852 25.16 7.6 45.6 60 0.4 32.7 0
00:59 1023 30.21 852 25.16 7.4 45.3 61 0.3 32.5 0
01:00 1023 30.21 852 25.16 7.2 44.9 62 0.4 32.8 0
01:01 1023 30.21 852 25.16 7 44.7 64 0.6 33.2 0
01:02 1023 30.21 852 25.16 6.8 44.2 64 0.6 33.1 0
01:03 1023 30.21 852 25.16 6.7 44 64 0.5 32.8 0
01:04 1023 30.21 852 25.16 6.6 43.8 64 0.3 32.5 0
01:05 1023 30.21 852 25.16 6.6 43.9 65 0.4 32.7 0
01:06 1023 30.21 852 25.16 6.5 43.8 65 0.5 32.9 0
01:07 1023 30.21 852 25.16 6.5 43.6 66 0.6 33 0
01:08 1023 30.21 852 25.16 6.4 43.5 66 0.6 33 0
01:09 1023 30.21 852 25.16 6.4 43.5 66 0.6 33 0
01:10 1023 30.21 852 25.16 6.3 43.4 66 0.5 32.9 0
01:11 1023 30.21 852 25.16 6.4 43.5 67 0.7 33.2 0
01:12 1023 30.21 852 25.16 6.4 43.5 66 0.6 33.1 0
01:13 1023 30.21 852 25.16 6.4 43.6 67 0.7 33.3 0
01:14 1023 30.21 852 25.16 6.4 43.6 65 0.5 32.8 0
01:15 1023 30.21 852 25.16 6.5 43.7 65 0.5 32.9 0
01:16 1023 30.21 852 25.16 6.6 43.9 65 0.5 33 0
01:17 1023 30.21 852 25.16 6.7 44 65 0.7 33.2 0
01:18 1023 30.21 852 25.16 6.7 44.1 65 0.6 33 0
01:19 1023 30.21 852 25.16 6.7 44.1 63 0.3 32.5 0
01:20 1023 30.21 852 25.16 6.8 44.3 63 0.3 32.5 0
01:21 1023 30.21 852 25.16 6.9 44.4 63 0.3 32.5 0
01:22 1023 30.21 852 25.16 7 44.5 63 0.4 32.8 0
01:23 1023 30.21 852 25.16 7 44.7 63 0.4 32.8 0
01:24 1023 30.21 852 25.16 7 44.6 63 0.4 32.7 0
01:25 1023 30.21 852 25.16 7 44.7 63 0.5 32.9 0
01:26 1023 30.21 852 25.16 7 44.7 64 0.6 33.2 0
01:27 1023 30.21 852 25.16 7 44.5 65 0.9 33.6 0
01:28 1023 30.21 852 25.16 6.9 44.4 66 1 33.8 0
01:29 1023 30.21 852 25.16 6.9 44.4 66 0.9 33.7 0
01:30 1023 30.21 852 25.16 6.8 44.3 66 1 33.8 0
01:31 1023 30.21 852 25.16 6.8 44.2 67 1.1 34 0
01:32 1023 30.21 852 25.16 6.7 44.1 68 1.3 34.3 0
01:33 1023 30.21 852 25.16 6.7 44 69 1.4 34.5 0
01:34 1023 30.21 852 25.16 6.6 43.9 70 1.5 34.8 0
01:35 1023 30.21 852 25.16 6.5 43.7 70 1.5 34.6 0
01:36 1023 30.21 852 25.16 6.4 43.6 71 1.6 34.8 0
01:37 1023 30.21 852 25.16 6.4 43.5 72 1.7 35 0
01:38 1023 30.21 852 25.16 6.3 43.4 72 1.7 35 0
01:39 1023 30.21 852 25.16 6.3 43.3 73 1.7 35.1 0
01:40 1023 30.21 852 25.16 6.2 43.2 73 1.7 35 0
01:41 1023 30.21 852 25.16 6.2 43.2 73 1.7 35.1 0
01:42 1023 30.21 852 25.16 6.2 43.2 72 1.6 34.9 0
01:43 1023 30.21 852 25.16 6.3 43.3 72 1.6 34.9 0
01:44 1023 30.21 852 25.16 6.3 43.4 72 1.6 34.9 0
01:45 1023 30.21 852 25.16 6.4 43.4 72 1.7 35 0
01:46 1023 30.21 852 25.16 6.4 43.5 72 1.7 35.1 0
01:47 1023 30.21 852 25.16 6.4 43.6 71 1.6 34.9 0
01:48 1023 30.21 852 25.16 6.5 43.6 71 1.5 34.7 0
01:49 1023 30.21 852 25.16 6.5 43.8 69 1.3 34.4 0
01:50 1023 30.21 852 25.16 6.6 43.9 68 1.2 34.2 0
01:51 1023 30.21 852 25.16 6.7 44.1 68 1.2 34.1 0
01:52 1023 30.21 852 25.16 6.8 44.2 68 1.3 34.3 0
01:53 1023 30.21 852 25.16 6.8 44.2 67 1.2 34.1 0
01:54 1023 30.21 852 25.16 6.8 44.2 67 1.2 34.1 0
01:55 1023 30.21 852 25.16 6.7 44.1 67 1.1 33.9 0
01:56 1023 30.21 852 25.16 6.6 44 67 1 33.8 0
01:57 1023 30.21 852 25.16 6.7 44 67 1 33.8 0
01:58 1023 30.21 852 25.16 6.6 43.8 68 1.1 33.9 0
01:59 1023 30.21 852 25.16 6.5 43.6 68 1 33.8 0
02:00 1023 30.21 852 25.16 6.3 43.4 69 1 33.8 0
02:01 1023 30.21 852 25.16 6.2 43.1 68 0.8 33.4 0
02:02 1023 30.21 852 25.16 6.1 43 69 0.9 33.6 0
02:03 1023 30.21 852 25.16 6.1 42.9 68 0.6 33.1 0
02:04 1023 30.21 852 25.16 6.1 42.9 68 0.7 33.3 0
02:05 1023 30.21 852 25.16 6 42.8 69 0.7 33.3 0
02:06 1023 30.21 852 25.16 5.8 42.4 70 0.7 33.2 0
02:07 1023 30.21 852 25.16 5.6 42 70 0.6 33.1 0
02:08 1023 30.21 852 25.16 5.5 41.8 71 0.6 33.1 0
02:09 1023 30.21 852 25.16 5.3 41.5 71 0.5 33 0
02:10 1023 30.21 852 25.16 5.1 41.2 72 0.5 33 0
02:11 1023 30.21 852 25.16 4.9 40.8 73 0.5 32.9 0
02:12 1023 30.21 852 25.16 4.8 40.6 74 0.5 32.9 0
02:13 1023 30.21 852 25.16 4.7 40.4 74 0.5 32.8 0
02:14 1023 30.21 852 25.16 4.6 40.3 74 0.4 32.8 0
02:15 1023 30.21 852 25.16 4.6 40.2 75 0.4 32.8 0
02:16 1023 30.21 852 25.16 4.5 40.1 75 0.4 32.8 0
02:17 1023 30.21 852 25.16 4.5 40 75 0.4 32.8 0
02:18 1023 30.21 852 25.16 4.5 40 75 0.4 32.8 0
02:19 1023 30.21 852 25.16 4.4 40 75 0.4 32.8 0
02:20 1023 30.21 852 25.16 4.5 40.2 75 0.5 32.9 0
02:21 1023 30.21 852 25.16 4.5 40.1 75 0.5 32.9 0
02:22 1023 30.21 852 25.16 4.5 40.1 75 0.5 32.9 0
02:23 1023 30.21 852 25.16 4.5 40.1 75 0.5 33 0
02:24 1023 30.21 852 25.16 4.5 40.1 75 0.5 32.9 0
02:25 1023 30.21 852 25.16 4.6 40.2 75 0.6 33.1 0
02:26 1023 30.21 852 25.16 4.6 40.3 75 0.6 33.1 0
02:27 1023 30.21 852 25.16 4.6 40.3 75 0.7 33.2 0
02:28 1023 30.21 852 25.16 4.7 40.4 76 0.7 33.3 0
02:29 1023 30.21 852 25.16 4.7 40.4 75 0.7 33.3 0
02:30 1023 30.21 852 25.16 4.7 40.4 76 0.8 33.4 0
02:31 1023 30.21 852 25.16 4.7 40.5 76 0.8 33.5 0
02:32 1023 30.21 852 25.16 4.7 40.4 76 0.8 33.4 0
02:33 1023 30.21 852 25.16 4.7 40.5 76 0.8 33.5 0
02:34 1023 30.21 852 25.16 4.8 40.6 76 0.9 33.6 0
02:35 1023 30.21 852 25.16 4.8 40.6 75 0.8 33.4 0
02:36 1023 30.21 852 25.16 4.8 40.7 75 0.8 33.4 0
02:37 1023 30.21 852 25.16 4.8 40.7 76 0.9 33.5 0
02:38 1023 30.21 852 25.16 4.7 40.5 76 0.9 33.7 0
02:39 1023 30.21 852 25.16 4.5 40.1 77 0.8 33.4 0
02:40 1023 30.21 852 25.16 4.4 39.9 77 0.8 33.4 0
02:41 1023 30.21 852 25.16 4.2 39.6 78 0.7 33.2 0
02:42 1023 30.21 852 25.16 4.1 39.3 78 0.6 33.1 0
02:43 1023 30.21 852 25.16 4 39.2 78 0.6 33 0
02:44 1023 30.21 852 25.16 3.9 39.1 79 0.5 33 0
02:45 1023 30.21 852 25.16 3.9 39 78 0.5 32.9 0
02:46 1023 30.21 852 25.16 3.9 38.9 79 0.5 32.9 0
02:47 1023 30.21 852 25.16 3.8 38.8 79 0.5 32.8 0
02:48 1023 30.21 852 25.16 3.8 38.9 79 0.5 33 0
02:49 1023 30.21 852 25.16 3.8 38.8 79 0.5 32.9 0
02:50 1023 30.21 852 25.16 3.7 38.7 79 0.5 32.9 0
02:51 1023 30.21 852 25.16 3.7 38.7 79 0.4 32.7 0
02:52 1023 30.21 852 25.16 3.8 38.8 78 0.4 32.7 0
02:53 1023 30.21 852 25.16 4 39.1 77 0.4 32.7 0
02:54 1023 30.21 852 25.16 4.1 39.4 77 0.4 32.7 0
02:55 1023 30.21 852 25.16 4.2 39.6 76 0.3 32.5 0
02:56 1023 30.21 852 25.16 4.3 39.7 75 0.2 32.3 0
02:57 1023 30.21 852 25.16 4.4 39.8 74 0.1 32.1 0
02:58 1023 30.21 852 25.16 4.5 40.1 72 -0 31.9 0
02:59 1023 30.21 852 25.16 4.7 40.5 71 -0 32 0
03:00 1023 30.21 852 25.16 4.9 40.9 71 0 32 0
03:01 1023 30.21 852 25.16 5.1 41.1 70 0 32.1 0
03:02 1023 30.21 852 25.16 5.1 41.2 69 -0 31.9 0
03:03 1023 30.21 852 25.16 5.2 41.3 69 0 32.1 0
03:04 1023 30.21 852 25.16 5.1 41.3 70 0 32.1 0
03:05 1023 30.21 852 25.16 5.1 41.3 70 0.1 32.2 0
03:06 1023 30.21 852 25.16 5.1 41.2 70 0.1 32.2 0
03:07 1023 30.21 852 25.16 5.1 41.2 70 0.1 32.2 0
03:08 1023 30.21 852 25.16 5.1 41.2 70 0.1 32.2 0
03:09 1023 30.21 852 25.16 5 41 71 0.2 32.3 0
03:10 1023 30.21 852 25.16 4.9 40.9 71 0.2 32.3 0
03:11 1023 30.21 852 25.16 4.9 40.7 72 0.3 32.5 0
03:12 1023 30.21 852 25.16 4.7 40.4 73 0.3 32.5 0
03:13 1023 30.21 852 25.16 4.5 40.1 73 0.2 32.3 0
03:14 1023 30.21 852 25.16 4.5 40 73 0.1 32.2 0
03:15 1023 30.21 852 25.16 4.4 39.9 73 0 32 0
03:16 1023 30.21 852 25.16 4.4 40 73 0 32 0
03:17 1023 30.21 852 25.16 4.5 40 73 0 32 0
03:18 1023 30.21 852 25.16 4.5 40.1 73 0 32 0
03:19 1023 30.21 852 25.16 4.6 40.2 72 0 32 0
03:20 1023 30.21 852 25.16 4.6 40.3 72 -0.1 31.9 0
03:21 1023 30.21 852 25.16 4.7 40.5 71 -0 31.9 0
03:22 1023 30.21 852 25.16 4.7 40.5 71 -0.1 31.9 0
03:23 1023 30.21 852 25.16 4.8 40.6 71 -0.1 31.7 0
03:24 1023 30.21 852 25.16 4.9 40.8 70 -0.1 31.9 0
03:25 1023 30.21 852 25.16 4.9 40.8 70 -0.1 31.8 0
03:26 1023 30.21 852 25.16 4.9 40.8 70 -0.1 31.8 0
03:27 1023 30.21 852 25.16 4.9 40.8 70 -0.1 31.9 0
03:28 1023 30.21 852 25.16 4.8 40.7 70 -0.1 31.8 0
03:29 1023 30.21 852 25.16 4.7 40.5 71 -0.1 31.8 0
03:30 1023 30.21 852 25.16 4.5 40.1 72 -0.1 31.8 0
03:31 1023 30.21 852 25.16 4.4 39.9 72 -0.2 31.7 0
03:32 1023 30.21 852 25.16 4.3 39.7 73 -0.2 31.7 0
03:33 1023 30.21 852 25.16 4.2 39.5 73 -0.2 31.7 0
03:34 1023 30.21 852 25.16 4 39.3 74 -0.2 31.6 0
03:35 1023 30.21 852 25.16 4 39.3 74 -0.2 31.7 0
03:36 1023 30.21 852 25.16 4 39.2 74 -0.2 31.7 0
03:37 1023 30.21 852 25.16 3.9 39.1 75 -0.2 31.7 0
03:38 1023 30.21 852 25.16 3.9 39.1 75 -0.1 31.7 0
03:39 1023 30.21 852 25.16 3.9 39.1 75 -0.1 31.7 0
03:40 1023 30.21 852 25.16 4 39.3 74 -0.1 31.8 0
03:41 1023 30.21 852 25.16 4.2 39.5 74 -0.1 31.8 0
03:42 1023 30.21 852 25.16 4.3 39.7 73 -0.1 31.7 0
03:43 1023 30.21 852 25.16 4.4 39.9 73 -0.1 31.8 0
03:44 1023 30.21 852 25.16 4.4 39.9 72 -0.1 31.7 0
03:45 1023 30.21 852 25.16 4.3 39.8 73 -0.1 31.8 0
03:46 1023 30.21 852 25.16 4.2 39.5 73 -0.2 31.7 0
03:47 1023 30.21 852 25.16 4.1 39.4 74 -0.2 31.7 0
03:48 1023 30.21 852 25.16 3.9 39 75 -0.2 31.7 0
03:49 1023 30.21 852 25.16 3.7 38.6 75 -0.3 31.5 0
03:50 1023 30.21 852 25.16 3.4 38.2 77 -0.3 31.5 0
03:51 1023 30.21 852 25.16 3.1 37.7 78 -0.3 31.4 0
03:52 1023 30.21 852 25.16 2.9 37.2 79 -0.3 31.4 0
03:53 1023 30.21 852 25.16 2.7 36.8 80 -0.4 31.3 0
03:54 1023 30.21 852 25.16 2.5 36.5 81 -0.4 31.3 0
03:55 1023 30.21 852 25.16 2.4 36.3 82 -0.4 31.2 0
03:56 1023 30.21 852 25.16 2.4 36.2 82 -0.4 31.2 0
03:57 1023 30.21 852 25.16 2.3 36.1 82 -0.5 31.1 0
03:58 1023 30.21 852 25.16 2.2 36 82 -0.5 31.1 0
03:59 1023 30.21 852 25.16 2.3 36.1 82 -0.5 31.1 0
04:00 1023 30.21 852 25.16 2.2 35.9 82 -0.6 31 0
04:01 1023 30.21 852 25.16 2.1 35.9 82 -0.5 31 0
04:02 1023 30.21 852 25.16 2.1 35.9 82 -0.6 30.9 0
04:03 1023 30.21 852 25.16 2.1 35.8 82 -0.6 30.9 0
04:04 1023 30.21 852 25.16 2.1 35.8 82 -0.6 30.9 0
04:05 1023 30.21 852 25.16 2.1 35.9 82 -0.6 30.9 0
04:06 1023 30.21 852 25.16 2.1 35.8 82 -0.7 30.7 0
04:07 1023 30.21 852 25.16 2.1 35.8 82 -0.7 30.8 0
04:08 1023 30.21 852 25.16 2.1 35.9 82 -0.7 30.8 0
04:09 1023 30.21 852 25.16 2.2 35.9 81 -0.7 30.8 0
04:10 1023 30.21 852 25.16 2.2 35.9 81 -0.8 30.6 0
04:11 1023 30.21 852 25.16 2.1 35.8 81 -0.7 30.7 0
04:12 1023 30.21 852 25.16 2.1 35.8 81 -0.7 30.7 0
04:13 1023 30.21 852 25.16 2.1 35.8 82 -0.7 30.7 0
04:14 1023 30.21 852 25.16 2 35.6 82 -0.8 30.5 0
04:15 1023 30.21 852 25.16 1.9 35.4 82 -0.8 30.5 0
04:16 1023 30.21 852 25.16 1.8 35.3 82 -0.9 30.3 0
04:17 1023 30.21 852 25.16 1.7 35.1 83 -0.9 30.4 0
04:18 1023 30.21 852 25.16 1.8 35.2 82 -0.9 30.3 0
04:19 1023 30.21 852 25.16 1.9 35.4 82 -0.8 30.5 0
04:20 1023 30.21 852 25.16 2.1 35.8 81 -0.8 30.5 0
04:21 1023 30.21 852 25.16 2.3 36.2 80 -0.8 30.6 0
04:22 1023 30.21 852 25.16 2.5 36.5 79 -0.7 30.7 0
04:23 1023 30.21 852 25.16 2.7 36.8 79 -0.7 30.8 0
04:24 1023 30.21 852 25.16 2.8 37 78 -0.6 30.8 0
04:25 1023 30.21 852 25.16 2.8 37.1 78 -0.7 30.8 0
04:26 1023 30.21 852 25.16 2.9 37.2 78 -0.6 30.9 0
04:27 1023 30.21 852 25.16 2.9 37.2 77 -0.7 30.8 0
04:28 1023 30.21 852 25.16 3 37.3 77 -0.7 30.7 0
04:29 1023 30.21 852 25.16 3.1 37.6 76 -0.7 30.8 0
04:30 1023 30.21 852 25.16 3.1 37.5 76 -0.7 30.7 0
04:31 1023 30.21 852 25.16 3.1 37.6 76 -0.7 30.7 0
04:32 1023 30.21 852 25.16 3.1 37.6 76 -0.8 30.6 0
04:33 1023 30.21 852 25.16 3.1 37.6 76 -0.7 30.7 0
04:34 1023 30.21 852 25.16 3 37.5 76 -0.7 30.7 0
04:35 1023 30.21 852 25.16 3 37.5 76 -0.7 30.7 0
04:36 1023 30.21 852 25.16 3.1 37.5 76 -0.7 30.7 0
04:37 1023 30.21 852 25.16 3.1 37.7 76 -0.7 30.8 0
04:38 1023 30.21 852 25.16 3.1 37.5 76 -0.7 30.7 0
04:39 1023 30.21 852 25.16 3.1 37.5 76 -0.7 30.7 0
04:40 1023 30.21 852 25.16 3.1 37.5 76 -0.7 30.7 0
04:41 1023 30.21 852 25.16 3.1 37.6 76 -0.7 30.7 0
04:42 1023 30.21 852 25.16 3.3 37.9 75 -0.7 30.7 0
04:43 1023 30.21 852 25.16 3.3 38 75 -0.8 30.6 0
04:44 1023 30.21 852 25.16 3.3 38 75 -0.7 30.7 0
04:45 1023 30.21 852 25.16 3.3 37.9 75 -0.8 30.6 0
04:46 1023 30.21 852 25.16 3.3 37.9 75 -0.8 30.6 0
04:47 1023 30.21 852 25.16 3.2 37.8 75 -0.8 30.5 0
04:48 1023 30.21 852 25.16 3.2 37.7 75 -0.8 30.6 0
04:49 1023 30.21 852 25.16 3.2 37.7 75 -0.8 30.6 0
04:50 1023 30.21 852 25.16 3.1 37.7 75 -0.8 30.5 0
04:51 1023 30.21 852 25.16 3.1 37.6 75 -0.9 30.4 0
04:52 1023 30.21 852 25.16 3.1 37.5 75 -0.9 30.4 0
04:53 1023 30.21 852 25.16 3 37.3 76 -0.9 30.3 0
04:54 1023 30.21 852 25.16 2.9 37.2 76 -1 30.2 0
04:55 1023 30.21 852 25.16 2.8 37 76 -1 30.2 0
04:56 1023 30.21 852 25.16 2.7 36.8 77 -1 30.2 0
04:57 1023 30.21 852 25.16 2.5 36.4 77 -1.1 30.1 0
04:58 1023 30.21 852 25.16 2.3 36.2 78 -1.1 29.9 0
04:59 1023 30.21 852 25.16 2.2 35.9 79 -1.1 30 0
05:00 1023 30.21 852 25.16 2 35.7 79 -1.2 29.8 0
05:01 1023 30.21 852 25.16 1.9 35.5 79 -1.3 29.6 0
05:02 1023 30.21 852 25.16 1.8 35.3 80 -1.3 29.6 0
05:03 1023 30.21 852 25.16 1.8 35.2 80 -1.3 29.6 0
05:04 1023 30.21 852 25.16 1.8 35.2 80 -1.3 29.7 0
05:05 1023 30.21 852 25.16 1.8 35.2 80 -1.3 29.7 0
05:06 1023 30.21 852 25.16 1.7 35.1 81 -1.2 29.8 0
05:07 1023 30.21 852 25.16 1.7 35.1 81 -1.2 29.9 0
05:08 1023 30.21 852 25.16 1.7 35 81 -1.2 29.8 0
05:09 1023 30.21 852 25.16 1.7 35 81 -1.2 29.9 0
05:10 1023 30.21 852 25.16 1.7 35 81 -1.2 29.8 0
05:11 1023 30.21 852 25.16 1.7 35.1 81 -1.2 29.8 0
05:12 1023 30.21 852 25.16 1.7 35 81 -1.3 29.7 0
05:13 1023 30.21 852 25.16 1.6 34.8 81 -1.3 29.6 0
05:14 1023 30.21 852 25.16 1.4 34.6 81 -1.4 29.5 0
05:15 1023 30.21 852 25.16 1.4 34.5 82 -1.4 29.5 0
05:16 1023 30.21 852 25.16 1.3 34.3 82 -1.4 29.5 0
05:17 1023 30.21 852 25.16 1.3 34.3 82 -1.4 29.5 0
05:18 1023 30.21 852 25.16 1.3 34.3 82 -1.4 29.4 0
05:19 1023 30.21 852 25.16 1.3 34.3 82 -1.4 29.5 0
05:20 1023 30.21 852 25.16 1.3 34.3 82 -1.4 29.4 0
05:21 1023 30.21 852 25.16 1.3 34.3 82 -1.4 29.4 0
05:22 1023 30.21 852 25.16 1.2 34.2 82 -1.5 29.3 0
05:23 1023 30.21 852 25.16 1.2 34.1 82 -1.5 29.3 0
05:24 1023 30.21 852 25.16 1.2 34.1 82 -1.5 29.3 0
05:25 1023 30.21 852 25.16 1.2 34.1 82 -1.5 29.3 0
05:26 1023 30.21 852 25.16 1.2 34.2 82 -1.5 29.3 0
05:27 1023 30.21 852 25.16 1.2 34.2 82 -1.5 29.2 0
05:28 1023 30.21 852 25.16 1.3 34.4 81 -1.5 29.3 0
05:29 1023 30.21 852 25.16 1.3 34.4 81 -1.6 29.2 0
05:30 1023 30.21 852 25.16 1.3 34.4 81 -1.6 29.2 0
05:31 1023 30.21 852 25.16 1.3 34.4 81 -1.6 29.1 0
05:32 1023 30.21 852 25.16 1.3 34.3 81 -1.6 29.1 0
05:33 1023 30.21 852 25.16 1.3 34.3 81 -1.7 29 0
05:34 1023 30.21 852 25.16 1.3 34.3 80 -1.7 28.9 0
05:35 1023 30.21 852 25.16 1.4 34.4 80 -1.7 29 0
05:36 1023 30.21 852 25.16 1.4 34.6 80 -1.7 29 0
05:37 1023 30.21 852 25.16 1.5 34.7 79 -1.7 28.9 0
05:38 1023 30.21 852 25.16 1.6 35 79 -1.7 29 0
05:39 1023 30.21 852 25.16 1.7 35.1 78 -1.7 28.9 0
05:40 1023 30.21 852 25.16 1.8 35.3 77 -1.7 29 0
05:41 1023 30.21 852 25.16 2 35.6 77 -1.6 29 0
05:42 1023 30.21 852 25.16 2.2 36 76 -1.6 29.2 0
05:43 1023 30.21 852 25.16 2.6 36.6 74 -1.5 29.3 0
05:44 1023 30.21 852 25.16 2.8 37.1 73 -1.5 29.2 0
05:45 1023 30.21 852 25.16 2.9 37.2 73 -1.5 29.3 0
05:46 1023 30.21 852 25.16 2.8 37 73 -1.5 29.2 0
05:47 1023 30.21 852 25.16 2.7 36.9 73 -1.6 29.2 0
05:48 1023 30.21 852 25.16 2.9 37.3 72 -1.5 29.2 0
05:49 1023 30.21 852 25.16 3.1 37.6 71 -1.6 29 0
05:50 1023 30.21 852 25.16 3.1 37.6 71 -1.7 29 0
05:51 1023 30.21 852 25.16 2.9 37.1 72 -1.7 28.9 0
05:52 1023 30.21 852 25.16 2.5 36.5 73 -1.8 28.8 0
05:53 1023 30.21 852 25.16 2.1 35.8 75 -1.8 28.8 0
05:54 1023 30.21 852 25.16 2 35.5 76 -1.9 28.7 0
05:55 1023 30.21 852 25.16 1.8 35.3 77 -1.8 28.7 0
05:56 1023 30.21 852 25.16 1.8 35.2 77 -1.8 28.7 0
05:57 1023 30.21 852 25.16 1.7 35.1 78 -1.8 28.8 0
05:58 1023 30.21 852 25.16 1.9 35.4 77 -1.8 28.8 0
05:59 1023 30.21 852 25.16 1.9 35.4 76 -1.8 28.7 0
06:00 1023 30.21 852 25.16 1.8 35.2 77 -1.8 28.7 0
06:01 1023 30.21 852 25.16 1.7 35.1 78 -1.8 28.8 0
06:02 1023 30.21 852 25.16 1.6 34.9 79 -1.7 28.9 0
06:03 1023 30.21 852 25.16 1.6 34.8 79 -1.7 29 0
06:04 1023 30.21 852 25.16 1.6 34.8 79 -1.7 29 0
06:05 1023 30.21 852 25.16 1.7 35 79 -1.6 29.2 0
06:06 1023 30.21 852 25.16 1.7 35.1 78 -1.6 29.1 0
06:07 1023 30.21 852 25.16 1.8 35.2 78 -1.6 29.1 0
06:08 1023 30.21 852 25.16 1.8 35.2 79 -1.6 29.2 0
06:09 1023 30.21 852 25.16 2 35.5 77 -1.7 29 0
06:10 1023 30.21 852 25.16 2.2 35.9 76 -1.6 29.1 0
06:11 1023 30.21 852 25.16 2.4 36.2 75 -1.6 29.1 0
06:12 1023 30.21 852 25.16 2.3 36.2 75 -1.6 29.2 0
06:13 1023 30.21 852 25.16 2.2 35.9 76 -1.7 29 0
06:14 1023 30.21 852 25.16 2 35.5 77 -1.7 29 0
06:15 1023 30.21 852 25.16 1.7 35 78 -1.8 28.7 0
06:16 1023 30.21 852 25.16 1.3 34.4 79 -1.9 28.5 0
06:17 1023 30.21 852 25.16 1.1 34 80 -2 28.4 0
06:18 1023 30.21 852 25.16 0.9 33.5 81 -2.1 28.2 0
06:19 1023 30.21 852 25.16 0.6 33.1 82 -2.1 28.2 0
06:20 1023 30.21 852 25.16 0.4 32.8 83 -2 28.3 0
06:21 1023 30.21 852 25.16 0.3 32.6 84 -2.1 28.3 0
06:22 1023 30.21 852 25.16 0.3 32.5 84 -2 28.3 0
06:23 1023 30.21 852 25.16 0.3 32.6 84 -2 28.4 0
06:24 1023 30.21 852 25.16 0.4 32.7 84 -1.9 28.5 0
06:25 1023 30.21 852 25.16 0.5 33 83 -2 28.4 0
06:26 1023 30.21 852 25.16 0.6 33 83 -2 28.4 0
06:27 1023 30.21 852 25.16 0.6 33.1 83 -2 28.4 0
06:28 1023 30.21 852 25.16 0.7 33.3 82 -1.9 28.5 0
06:29 1023 30.21 852 25.16 0.8 33.4 81 -2.1 28.2 0
06:30 1023 30.21 852 25.16 0.8 33.5 80 -2.2 28 0
06:31 1023 30.21 852 25.16 0.7 33.3 81 -2.2 28.1 0
06:32 1023 30.21 852 25.16 0.6 33.2 82 -2.1 28.2 0
06:33 1023 30.21 852 25.16 0.6 33.1 82 -2.1 28.1 0
06:34 1023 30.21 852 25.16 0.8 33.4 81 -2.1 28.2 0
06:35 1023 30.21 852 25.16 1.2 34.1 80 -2 28.5 0
06:36 1023 30.21 852 25.16 1.8 35.3 75 -2.1 28.3 0
06:37 1023 30.21 852 25.16 2.1 35.8 74 -2 28.4 0
06:38 1023 30.21 852 25.16 2.3 36.2 72 -2.1 28.2 0
06:39 1023 30.21 852 25.16 2.7 36.8 71 -2.1 28.3 0
06:40 1023 30.21 852 25.16 3.1 37.5 70 -1.9 28.6 0
06:41 1023 30.21 852 25.16 3.5 38.3 67 -2 28.5 0
06:42 1023 30.21 852 25.16 4 39.1 65 -2 28.4 0
06:43 1023 30.21 852 25.16 3.8 38.9 66 -2 28.4 0
06:44 1023 30.21 852 25.16 3.4 38.2 68 -2 28.5 0
06:45 1023 30.21 852 25.16 3.4 38.2 68 -1.9 28.6 0
06:46 1023 30.21 852 25.16 3.9 39.1 65 -2.1 28.3 0
06:47 1023 30.21 852 25.16 4.6 40.4 62 -2 28.5 0
06:48 1023 30.21 852 25.16 5.2 41.3 60 -1.9 28.6 0
06:49 1023 30.21 852 25.16 5.5 41.8 59 -1.9 28.6 0
06:50 1023 30.21 852 25.16 5.7 42.2 58 -1.9 28.5 0
06:51 1023 30.21 852 25.16 6 42.8 57 -1.9 28.5 0
06:52 1023 30.21 852 25.16 6.2 43.1 56 -1.9 28.6 0
06:53 1023 30.21 852 25.16 6.3 43.4 55 -1.9 28.5 0
06:54 1023 30.21 852 25.16 6.5 43.8 55 -1.9 28.5 0
06:55 1023 30.21 852 25.16 6.5 43.7 55 -1.9 28.5 0
06:56 1023 30.21 852 25.16 6.3 43.3 56 -1.9 28.6 0
06:57 1023 30.21 852 25.16 5.9 42.5 57 -1.9 28.5 0
06:58 1023 30.21 852 25.16 5.4 41.7 59 -1.9 28.6 0
06:59 1023 30.21 852 25.16 5 40.9 61 -2 28.5 0
07:00 1023 30.21 852 25.16 4.8 40.6 62 -2 28.4 0
07:01 1023 30.21 852 25.16 4.7 40.5 62 -2 28.4 0
07:02 1023 30.21 852 25.16 4.7 40.5 61 -2.1 28.2 0
07:03 1023 30.21 852 25.16 4.9 40.8 61 -2.1 28.3 0
07:04 1023 30.21 852 25.16 5 41 60 -2.1 28.2 0
07:05 1023 30.21 852 25.16 5.2 41.3 60 -2.1 28.3 0
07:06 1023 30.21 852 25.16 5.4 41.7 59 -2.1 28.3 0
07:07 1023 30.21 852 25.16 5.6 42 58 -2 28.3 0
07:08 1023 30.21 852 25.16 5.6 42.1 58 -2 28.4 0
07:09 1023 30.21 852 25.16 5.6 42.2 58 -2 28.4 0
07:10 1023 30.21 852 25.16 5.7 42.3 57 -2 28.4 0
07:11 1023 30.21 852 25.16 5.9 42.6 57 -2 28.4 0
07:12 1023 30.21 852 25.16 5.9 42.7 57 -2 28.4 0
07:13 1023 30.21 852 25.16 6 42.9 56 -2 28.4 0
07:14 1023 30.21 852 25.16 6.1 43 56 -1.9 28.5 0
07:15 1023 30.21 852 25.16 6.1 43 56 -2 28.4 0
07:16 1023 30.21 852 25.16 6.1 43 56 -2 28.5 0
07:17 1023 30.21 852 25.16 6.1 43 56 -2 28.4 0
07:18 1023 30.21 852 25.16 6.2 43.1 56 -2 28.5 0
07:19 1023 30.21 852 25.16 6.2 43.1 56 -1.9 28.5 0
07:20 1023 30.21 852 25.16 6.1 43 56 -2 28.4 0
07:21 1023 30.21 852 25.16 6.2 43.1 56 -2 28.4 0
07:22 1023 30.21 852 25.16 6.1 43.1 56 -2 28.4 0
07:23 1023 30.21 852 25.16 6.1 43 56 -2 28.4 0
07:24 1023 30.21 852 25.16 6.1 42.9 56 -1.9 28.5 0
07:25 1023 30.21 852 25.16 6 42.8 57 -1.9 28.5 0
07:26 1023 30.21 852 25.16 5.8 42.5 58 -1.8 28.8 0
07:27 1023 30.21 852 25.16 5.5 42 60 -1.7 28.9 0
07:28 1023 30.21 852 25.16 5.3 41.5 61 -1.7 29 0
07:29 1023 30.21 852 25.16 5.1 41.1 61 -1.7 28.9 0
07:30 1023 30.21 852 25.16 4.9 40.8 62 -1.8 28.7 0
07:31 1023 30.21 852 25.16 4.8 40.6 62 -1.9 28.6 0
07:32 1023 30.21 852 25.16 4.6 40.2 62 -2.1 28.2 0
07:33 1023 30.21 852 25.16 3.9 39.1 65 -2.1 28.3 0
07:34 1023 30.21 852 25.16 3.3 37.9 68 -2.1 28.2 0
07:35 1023 30.21 852 25.16 2.6 36.7 70 -2.2 28 0
07:36 1023 30.21 852 25.16 2.1 35.7 74 -2.2 28.1 0
07:37 1023 30.21 852 25.16 1.7 35 75 -2.2 28 0
07:38 1023 30.21 852 25.16 1.3 34.4 77 -2.2 28.1 0
07:39 1023 30.21 852 25.16 1.1 34.1 79 -2.1 28.2 0
07:40 1023 30.21 852 25.16 1 33.8 80 -2 28.4 0
07:41 1023 30.21 852 25.16 0.9 33.7 81 -1.9 28.5 0
07:42 1023 30.21 852 25.16 1 33.7 82 -1.8 28.8 0
07:43 1023 30.21 852 25.16 1 33.8 82 -1.7 28.9 0
07:44 1023 30.21 852 25.16 1.1 33.9 82 -1.7 29 0
07:45 1023 30.21 852 25.16 1.1 34 82 -1.7 29 0
07:46 1023 30.21 852 25.16 1.1 34.1 82 -1.6 29.1 0
07:47 1023 30.21 852 25.16 1.2 34.2 82 -1.6 29.2 0
07:48 1023 30.21 852 25.16 1.2 34.2 82 -1.5 29.2 0
07:49 1023 30.21 852 25.16 1.2 34.2 82 -1.4 29.4 0
07:50 1023 30.21 852 25.16 1.2 34.2 83 -1.4 29.4 0
07:51 1023 30.21 853 25.19 1.2 34.2 83 -1.3 29.6 0
07:52 1023 30.21 852 25.16 1.2 34.2 83 -1.3 29.7 0
07:53 1023 30.21 852 25.16 1.3 34.4 83 -1.3 29.7 0
07:54 1023 30.21 852 25.16 1.5 34.6 82 -1.3 29.7 0
07:55 1023 30.21 852 25.16 1.5 34.8 82 -1.2 29.8 0
07:56 1023 30.21 852 25.16 1.6 34.9 82 -1.2 29.9 0
07:57 1023 30.21 852 25.16 1.7 35 81 -1.2 29.8 0
07:58 1023 30.21 853 25.19 1.7 35.1 81 -1.2 29.8 0
07:59 1023 30.21 853 25.19 1.8 35.2 81 -1.1 30 0
08:00 1023 30.21 853 25.19 1.8 35.2 81 -1.1 30.1 0
08:01 1023 30.21 853 25.19 1.8 35.2 82 -1 30.2 0
08:02 1023 30.21 853 25.19 1.8 35.2 82 -1 30.3 0
08:03 1023 30.21 853 25.19 1.8 35.2 82 -1 30.2 0
08:04 1023 30.21 853 25.19 1.8 35.3 82 -1 30.3 0
08:05 1023 30.21 853 25.19 1.8 35.3 82 -0.9 30.4 0
08:06 1023 30.21 853 25.19 1.8 35.2 83 -0.9 30.4 0
08:07 1023 30.21 853 25.19 1.8 35.2 83 -0.8 30.5 0
08:08 1023 30.21 853 25.19 1.8 35.2 83 -0.8 30.6 0
08:09 1023 30.21 853 25.19 1.8 35.2 83 -0.8 30.5 0
08:10 1023 30.21 853 25.19 1.8 35.2 83 -0.7 30.7 0
08:11 1023 30.21 853 25.19 1.8 35.2 84 -0.7 30.8 0
08:12 1023 30.21 853 25.19 1.9 35.4 84 -0.5 31 0
08:13 1023 30.21 853 25.19 1.9 35.4 84 -0.5 31.1 0
08:14 1023 30.21 853 25.19 1.9 35.5 84 -0.5 31.2 0
08:15 1023 30.21 853 25.19 2.1 35.7 84 -0.4 31.3 0
08:16 1023 30.21 853 25.19 2.2 36 83 -0.3 31.4 0
08:17 1023 30.21 853 25.19 2.4 36.4 83 -0.2 31.7 0
08:18 1023 30.21 853 25.19 2.6 36.7 82 -0.2 31.6 0
08:19 1024 30.24 853 25.19 2.7 36.9 82 -0.1 31.8 0
08:20 1024 30.24 853 25.19 2.8 37.1 82 -0 32 0
08:21 1024 30.24 853 25.19 2.9 37.3 82 0.1 32.2 0
08:22 1024 30.24 853 25.19 3 37.4 82 0.2 32.4 0
08:23 1024 30.24 853 25.19 3.1 37.6 82 0.4 32.7 0
08:24 1024 30.24 853 25.19 3.2 37.8 82 0.5 33 0
08:25 1024 30.24 853 25.19 3.4 38 82 0.5 33 0
08:26 1024 30.24 853 25.19 3.5 38.3 81 0.5 32.9 0
08:27 1024 30.24 853 25.19 3.6 38.4 80 0.4 32.7 0
08:28 1024 30.24 853 25.19 3.6 38.5 80 0.4 32.8 0
08:29 1024 30.24 853 25.19 3.7 38.7 79 0.4 32.7 0
08:30 1024 30.24 853 25.19 3.8 38.8 79 0.6 33 0
08:31 1024 30.24 853 25.19 3.9 39.1 80 0.8 33.4 0
08:32 1024 30.24 853 25.19 4.1 39.3 79 0.8 33.5 0
08:33 1024 30.24 853 25.19 4.3 39.7 80 1.1 33.9 0
08:34 1024 30.24 853 25.19 4.5 40 78 0.9 33.7 0
08:35 1024 30.24 853 25.19 4.6 40.4 78 1.1 33.9 0
08:36 1024 30.24 853 25.19 4.9 40.8 77 1.2 34.1 0
08:37 1024 30.24 853 25.19 5 41 76 1.1 34.1 0
08:38 1024 30.24 853 25.19 5.2 41.4 75 1.2 34.2 0
08:39 1024 30.24 853 25.19 5.5 41.8 76 1.5 34.7 0
08:40 1024 30.24 853 25.19 5.7 42.3 73 1.3 34.3 0
08:41 1024 30.24 853 25.19 5.9 42.6 71 1.1 33.9 0
08:42 1024 30.24 853 25.19 6.2 43.1 72 1.6 34.9 0
08:43 1024 30.24 853 25.19 6.4 43.5 70 1.4 34.5 0
08:44 1024 30.24 853 25.19 6.7 44 70 1.7 35 0
08:45 1024 30.24 853 25.19 6.9 44.5 71 2.1 35.7 0
08:46 1024 30.24 853 25.19 7.3 45.1 67 1.5 34.7 0
08:47 1024 30.24 853 25.19 7.5 45.4 64 1.1 34 0
08:48 1024 30.24 853 25.19 7.7 45.9 59 0.4 32.6 0
08:49 1024 30.24 853 25.19 8 46.3 60 0.7 33.3 0
08:50 1024 30.24 853 25.19 8.2 46.8 58 0.5 32.8 0
08:51 1024 30.24 853 25.19 8.4 47.1 54 -0.3 31.4 0
08:52 1024 30.24 853 25.19 8.6 47.4 55 0 32 0
08:53 1024 30.24 853 25.19 8.7 47.6 56 0.4 32.7 0
08:54 1024 30.24 853 25.19 8.8 47.8 55 0.2 32.3 0
08:55 1024 30.24 853 25.19 8.9 47.9 54 0.1 32.1 0
08:56 1024 30.24 853 25.19 8.9 48.1 51 -0.6 31 0
08:57 1024 30.24 853 25.19 8.9 48.1 50 -0.8 30.6 0
08:58 1024 30.24 853 25.19 8.9 48.1 53 -0.2 31.7 0
08:59 1024 30.24 853 25.19 8.8 47.9 54 0 32 0
09:00 1024 30.24 853 25.19 8.8 47.8 51 -0.8 30.6 0
09:01 1024 30.24 853 25.19 8.8 47.8 52 -0.5 31.1 0
09:02 1024 30.24 853 25.19 8.7 47.7 52 -0.4 31.2 0
09:03 1024 30.24 853 25.19 8.8 47.8 51 -0.8 30.5 0
09:04 1024 30.24 853 25.19 8.8 47.9 51 -0.8 30.5 0
09:05 1024 30.24 853 25.19 8.8 47.9 50 -1 30.3 0
09:06 1024 30.24 853 25.19 8.8 47.9 53 -0.3 31.5 0
09:07 1024 30.24 853 25.19 8.8 47.8 52 -0.5 31 0
09:08 1024 30.24 853 25.19 8.8 47.8 50 -1.1 30.1 0
09:09 1024 30.24 853 25.19 8.8 47.8 49 -1.2 29.8 0
09:10 1024 30.24 853 25.19 8.8 47.9 51 -0.6 30.8 0
09:11 1024 30.24 853 25.19 8.8 47.9 50 -0.9 30.3 0
09:12 1024 30.24 853 25.19 8.8 47.9 50 -0.9 30.4 0
09:13 1024 30.24 853 25.19 8.8 47.8 49 -1.2 29.8 0
09:14 1024 30.24 853 25.19 8.8 47.8 50 -1.1 30 0
09:15 1024 30.24 853 25.19 8.8 47.9 49 -1.4 29.5 0
09:16 1024 30.24 853 25.19 8.9 48 49 -1.1 30 0
09:17 1024 30.24 853 25.19 9 48.2 49 -1.2 29.8 0
09:18 1024 30.24 853 25.19 9.1 48.4 48 -1.3 29.7 0
09:19 1024 30.24 853 25.19 9.2 48.6 50 -0.7 30.8 0
09:20 1023 30.21 853 25.19 9.3 48.7 48 -1 30.1 0
09:21 1024 30.24 853 25.19 9.3 48.7 48 -1.1 30.1 0
09:22 1024 30.24 853 25.19 9.3 48.7 48 -1 30.2 0
09:23 1024 30.24 853 25.19 9.3 48.7 48 -1.1 30 0
09:24 1024 30.24 853 25.19 9.3 48.7 48 -1.1 30 0
09:25 1024 30.24 853 25.19 9.4 48.8 50 -0.6 30.9 0
09:26 1024 30.24 853 25.19 9.4 49 48 -1.1 30.1 0
09:27 1024 30.24 853 25.19 9.5 49.2 50 -0.3 31.5 0
09:28 1024 30.24 853 25.19 9.7 49.4 49 -0.5 31.1 0
09:29 1024 30.24 853 25.19 9.8 49.7 48 -0.6 31 0
09:30 1024 30.24 853 25.19 10 50 50 0.1 32.2 0
09:31 1024 30.24 853 25.19 10.1 50.2 48 -0.4 31.2 0
09:32 1024 30.24 853 25.19 10.2 50.3 47 -0.5 31.1 0
09:33 1024 30.24 853 25.19 10.3 50.5 50 0.4 32.7 0
09:34 1024 30.24 853 25.19 10.4 50.7 49 0.1 32.1 0
09:35 1024 30.24 853 25.19 10.4 50.8 48 -0.1 31.9 0
09:36 1024 30.24 853 25.19 10.5 50.9 50 0.5 32.9 0
09:37 1024 30.24 853 25.19 10.7 51.2 46 -0.3 31.4 0
09:38 1024 30.24 853 25.19 10.9 51.7 45 -0.5 31.1 0
09:39 1024 30.24 853 25.19 11.1 51.9 45 -0.3 31.5 0
09:40 1024 30.24 853 25.19 11.1 51.9 46 -0.1 31.8 0
09:41 1024 30.24 853 25.19 10.8 51.4 46 -0.5 31.1 0
09:42 1024 30.24 853 25.19 10.4 50.7 47 -0.4 31.3 0
09:43 1024 30.24 853 25.19 10.1 50.2 49 0 32 0
09:44 1024 30.24 853 25.19 9.9 49.9 48 -0.6 30.9 0
09:45 1024 30.24 853 25.19 9.7 49.5 52 0.4 32.8 0
09:46 1024 30.24 853 25.19 9.6 49.3 50 -0.2 31.6 0
09:47 1024 30.24 853 25.19 9.5 49.1 50 -0.4 31.3 0
09:48 1024 30.24 853 25.19 9.5 49.1 50 -0.4 31.2 0
09:49 1024 30.24 853 25.19 9.4 49 51 -0.2 31.7 0
09:50 1024 30.24 853 25.19 9.4 49 51 -0.2 31.7 0
09:51 1024 30.24 853 25.19 9.4 48.9 53 0.4 32.7 0
09:52 1024 30.24 853 25.19 9.4 48.9 54 0.5 32.9 0
09:53 1024 30.24 853 25.19 9.4 48.9 53 0.2 32.4 0
09:54 1024 30.24 853 25.19 9.5 49 49 -0.6 31 0
09:55 1024 30.24 853 25.19 9.5 49.1 54 0.6 33.1 0
09:56 1024 30.24 853 25.19 9.5 49.2 50 -0.3 31.5 0
09:57 1024 30.24 853 25.19 9.6 49.2 48 -0.9 30.5 0
09:58 1024 30.24 853 25.19 9.7 49.4 48 -0.7 30.7 0
09:59 1024 30.24 853 25.19 9.7 49.5 48 -0.6 30.8 0
10:00 1024 30.24 853 25.19 9.8 49.6 51 0.1 32.2 0
10:01 1024 30.24 853 25.19 9.9 49.8 52 0.7 33.2 0
10:02 1024 30.24 853 25.19 10 49.9 52 0.7 33.2 0
10:03 1024 30.24 853 25.19 10 50.1 47 -0.7 30.8 0
10:04 1024 30.24 853 25.19 10.1 50.2 48 -0.5 31.1 0
10:05 1024 30.24 853 25.19 10.2 50.4 49 0.1 32.1 0
10:06 1024 30.24 853 25.19 10.4 50.6 47 -0.4 31.3 0
10:07 1024 30.24 853 25.19 10.6 51 46 -0.6 30.9 0
10:08 1024 30.24 853 25.19 10.6 51.1 46 -0.6 30.9 0
10:09 1024 30.24 853 25.19 10.6 51 49 0.3 32.6 0
10:10 1024 30.24 853 25.19 10.5 50.9 48 -0 32 0
10:11 1024 30.24 853 25.19 10.4 50.7 51 0.6 33.1 0
10:12 1024 30.24 853 25.19 10.4 50.7 52 0.9 33.7 0
10:13 1024 30.24 853 25.19 10.5 50.9 50 0.6 33 0
10:14 1024 30.24 853 25.19 10.6 51 48 0 32.1 0
10:15 1024 30.24 853 25.19 10.4 50.8 49 0.1 32.2 0
10:16 1024 30.24 853 25.19 10.3 50.5 50 0.5 32.9 0
10:17 1024 30.24 853 25.19 10.2 50.4 53 1.1 34 0
10:18 1024 30.24 853 25.19 10.2 50.4 50 0.4 32.7 0
10:19 1024 30.24 853 25.19 10.2 50.4 47 -0.4 31.2 0
10:20 1024 30.24 853 25.19 10.2 50.3 49 0 32 0
10:21 1024 30.24 853 25.19 10.1 50.2 50 0.2 32.4 0
10:22 1024 30.24 853 25.19 10 50.1 53 0.8 33.5 0
10:23 1024 30.24 853 25.19 10.1 50.1 51 0.5 32.9 0
10:24 1024 30.24 853 25.19 10.1 50.3 51 0.5 33 0
10:25 1024 30.24 853 25.19 10.3 50.5 50 0.2 32.4 0
10:26 1024 30.24 853 25.19 10.3 50.6 53 1.2 34.1 0
10:27 1024 30.24 853 25.19 10.4 50.8 48 -0 32 0
10:28 1024 30.24 853 25.19 10.5 51 50 0.6 33.1 0
10:29 1024 30.24 853 25.19 10.6 51.1 53 1.4 34.5 0
10:30 1024 30.24 853 25.19 10.8 51.4 47 0 32 0
10:31 1024 30.24 853 25.19 10.9 51.6 48 0.2 32.4 0
10:32 1024 30.24 853 25.19 11 51.7 48 0.4 32.8 0
10:33 1024 30.24 853 25.19 11.1 51.9 52 1.7 35.1 0
10:34 1024 30.24 853 25.19 11.1 52.1 49 0.8 33.4 0
10:35 1024 30.24 853 25.19 11.3 52.3 47 0.5 33 0
10:36 1024 30.24 853 25.19 11.2 52.2 49 1 33.9 0
10:37 1024 30.24 853 25.19 11.3 52.3 47 0.5 32.9 0
10:38 1024 30.24 853 25.19 11.2 52.1 49 0.9 33.6 0
10:39 1024 30.24 853 25.19 11.1 52 49 0.7 33.3 0
10:40 1024 30.24 853 25.19 11.2 52.2 49 0.9 33.6 0
10:41 1024 30.24 853 25.19 11.3 52.3 49 1.1 34 0
10:42 1024 30.24 853 25.19 11.3 52.3 45 -0.1 31.9 0
10:43 1024 30.24 853 25.19 11.1 52.1 49 1 33.7 0
10:44 1024 30.24 853 25.19 11.1 52 49 0.7 33.3 0
10:45 1024 30.24 853 25.19 11.1 52 48 0.5 33 0
10:46 1024 30.24 853 25.19 11.2 52.1 49 0.8 33.5 0
10:47 1024 30.24 853 25.19 11.2 52.2 51 1.5 34.7 0
10:48 1024 30.24 853 25.19 11.3 52.3 49 0.9 33.7 0
10:49 1024 30.24 853 25.19 11.4 52.4 48 0.7 33.2 0
10:50 1024 30.24 853 25.19 11.4 52.6 50 1.6 34.8 0
10:51 1024 30.24 853 25.19 11.5 52.6 45 -0.1 31.8 0
10:52 1024 30.24 853 25.19 11.4 52.6 48 0.9 33.5 0
10:53 1024 30.24 853 25.19 11.5 52.6 48 1 33.8 0
10:54 1024 30.24 853 25.19 11.5 52.8 47 0.6 33 0
10:55 1024 30.24 853 25.19 11.6 52.9 47 0.6 33.1 0
10:56 1024 30.24 853 25.19 11.7 53 46 0.4 32.7 0
10:57 1024 30.24 853 25.19 11.7 53.1 47 0.8 33.4 0
10:58 1024 30.24 853 25.19 11.7 53.1 48 1.1 34 0
10:59 1024 30.24 853 25.19 11.8 53.3 46 0.8 33.4 0
11:00 1023 30.21 853 25.19 11.8 53.3 47 0.9 33.6 0
11:01 1024 30.24 853 25.19 11.8 53.3 45 0.4 32.6 0
11:02 1024 30.24 853 25.19 11.7 53.1 48 1.1 33.9 0
11:03 1024 30.24 853 25.19 11.8 53.2 44 0 32 0
11:04 1024 30.24 853 25.19 11.8 53.3 46 0.6 33 0
11:05 1024 30.24 853 25.19 11.9 53.4 45 0.5 33 0
11:06 1024 30.24 853 25.19 12 53.7 46 0.8 33.4 0
11:07 1024 30.24 853 25.19 12.1 53.7 50 2 35.6 0
11:08 1024 30.24 853 25.19 12.2 53.9 41 -0.5 31.2 0
11:09 1024 30.24 853 25.19 12.3 54.1 45 0.6 33.2 0
11:10 1024 30.24 853 25.19 12.3 54.2 45 0.9 33.5 0
11:11 1024 30.24 853 25.19 12.4 54.3 45 0.8 33.4 0
11:12 1024 30.24 853 25.19 12.4 54.3 45 1 33.8 0
11:13 1024 30.24 853 25.19 12.4 54.3 46 1.1 34 0
11:14 1024 30.24 853 25.19 12.5 54.5 46 1.1 34.1 0
11:15 1024 30.24 853 25.19 12.6 54.7 43 0.6 33 0
11:16 1024 30.24 853 25.19 12.6 54.7 44 0.9 33.6 0
11:17 1024 30.24 853 25.19 12.7 54.8 46 1.3 34.4 0
11:18 1024 30.24 853 25.19 12.7 54.9 45 1 33.9 0
11:19 1024 30.24 853 25.19 12.8 55 42 0.2 32.4 0
11:20 1024 30.24 853 25.19 12.8 55.1 43 0.6 33.1 0
11:21 1024 30.24 853 25.19 12.8 55.1 42 0.3 32.6 0
11:22 1024 30.24 853 25.19 12.9 55.2 44 0.9 33.6 0
11:23 1024 30.24 853 25.19 13 55.4 44 1.2 34.2 0
11:24 1024 30.24 853 25.19 13.2 55.7 46 1.8 35.2 0
11:25 1024 30.24 853 25.19 13.4 56.1 41 0.5 33 0
11:26 1024 30.24 853 25.19 13.4 56 43 1.2 34.2 0
11:27 1024 30.24 853 25.19 13.3 55.9 40 0.2 32.3 0
11:28 1024 30.24 853 25.19 13.3 55.9 42 0.8 33.5 0
11:29 1024 30.24 853 25.19 13.4 56.1 44 1.4 34.5 0
11:30 1024 30.24 853 25.19 13.4 56.1 41 0.6 33.1 0
11:31 1024 30.24 853 25.19 13.4 56.1 40 0.2 32.3 0
11:32 1024 30.24 853 25.19 13.3 56 39 -0.2 31.7 0
11:33 1024 30.24 853 25.19 13.3 55.9 42 0.5 33 0
11:34 1024 30.24 853 25.19 13.3 56 40 0 32.1 0
11:35 1024 30.24 853 25.19 13.2 55.8 44 1.4 34.6 0
11:36 1024 30.24 853 25.19 13.3 55.9 41 0.3 32.5 0
11:37 1024 30.24 853 25.19 13.2 55.8 42 0.5 33 0
11:38 1024 30.24 853 25.19 13.3 55.9 35 -1.8 28.8 0
11:39 1024 30.24 853 25.19 13.3 55.9 36 -1.4 29.5 0
11:40 1024 30.24 853 25.19 13.2 55.8 39 -0.5 31.1 0
11:41 1024 30.24 853 25.19 13.3 55.9 40 -0.1 31.9 0
11:42 1024 30.24 853 25.19 13.3 55.9 37 -0.8 30.5 0
11:43 1024 30.24 853 25.19 13.3 55.9 41 0.3 32.5 0
11:44 1024 30.24 853 25.19 13.3 56 38 -0.7 30.7 0
11:45 1023 30.21 853 25.19 13.3 55.9 37 -1.1 30.1 0
11:46 1023 30.21 853 25.19 13.2 55.8 36 -1.3 29.6 0
11:47 1023 30.21 853 25.19 13.2 55.8 40 0.1 32.1 0
11:48 1023 30.21 853 25.19 13.2 55.8 40 -0 31.9 0
11:49 1023 30.21 853 25.19 13.2 55.8 37 -1.1 30 0
11:50 1023 30.21 852 25.16 13.2 55.8 41 0.1 32.3 0
11:51 1023 30.21 853 25.19 13.4 56.1 38 -0.7 30.7 0
11:52 1023 30.21 853 25.19 13.5 56.2 42 0.9 33.6 0
11:53 1023 30.21 853 25.19 13.5 56.4 39 0 32 0
11:54 1023 30.21 853 25.19 13.5 56.3 38 -0.3 31.5 0
11:55 1023 30.21 853 25.19 13.7 56.6 40 0.3 32.5 0
11:56 1023 30.21 853 25.19 13.7 56.6 44 1.7 35 0
11:57 1023 30.21 853 25.19 13.8 56.8 37 -0.6 31 0
11:58 1023 30.21 853 25.19 13.8 56.8 42 1.1 34 0
11:59 1023 30.21 853 25.19 13.8 56.9 39 0.3 32.5 0
12:00 1023 30.21 853 25.19 14 57.1 40 0.8 33.4 0
12:01 1023 30.21 853 25.19 14 57.1 40 0.7 33.2 0
12:02 1023 30.21 852 25.16 14.2 57.5 36 -0.5 31.1 0
12:03 1023 30.21 852 25.16 14.4 57.9 38 0.5 32.9 0
12:04 1023 30.21 852 25.16 14.4 57.9 41 1.4 34.6 0
12:05 1023 30.21 852 25.16 14.3 57.7 35 -0.9 30.3 0
12:06 1023 30.21 852 25.16 14.2 57.5 38 0.3 32.5 0
12:07 1023 30.21 852 25.16 14.2 57.5 38 0.2 32.4 0
12:08 1023 30.21 852 25.16 14.2 57.5 37 -0.3 31.5 0
12:09 1023 30.21 853 25.19 14.1 57.5 38 -0 31.9 0
12:10 1023 30.21 852 25.16 14.1 57.4 42 1.4 34.6 0
12:11 1023 30.21 852 25.16 14.2 57.6 40 0.9 33.7 0
12:12 1023 30.21 852 25.16 14.3 57.7 37 0 32.1 0
12:13 1023 30.21 852 25.16 14.2 57.6 40 1.1 33.9 0
12:14 1023 30.21 852 25.16 14.2 57.6 39 0.7 33.3 0
12:15 1023 30.21 852 25.16 14.2 57.6 40 1 33.8 0
12:16 1023 30.21 853 25.19 14.2 57.6 36 -0.7 30.8 0
12:17 1023 30.21 853 25.19 14 57.3 42 1.5 34.7 0
12:18 1023 30.21 852 25.16 14.1 57.4 42 1.6 34.9 0
12:19 1023 30.21 853 25.19 14.2 57.6 39 0.4 32.7 0
12:20 1023 30.21 852 25.16 14.3 57.7 37 -0 31.9 0
12:21 1023 30.21 852 25.16 14.3 57.7 38 0.2 32.3 0
12:22 1023 30.21 852 25.16 14.4 57.9 33 -1.5 29.4 0
12:23 1023 30.21 852 25.16 14.4 57.9 41 1.3 34.4 0
12:24 1023 30.21 852 25.16 14.4 57.9 39 0.9 33.6 0
12:25 1023 30.21 852 25.16 14.5 58 39 0.7 33.2 0
12:26 1023 30.21 852 25.16 14.4 57.9 34 -1.3 29.7 0
12:27 1023 30.21 852 25.16 14.2 57.6 37 -0.1 31.9 0
12:28 1023 30.21 852 25.16 14.3 57.7 39 0.4 32.8 0
12:29 1023 30.21 852 25.16 14.2 57.6 38 0.3 32.5 0
12:30 1023 30.21 852 25.16 14 57.2 37 -0.2 31.7 0
12:31 1023 30.21 852 25.16 13.8 56.9 38 -0.1 31.8 0
12:32 1023 30.21 852 25.16 13.8 56.9 40 0.6 33 0
12:33 1023 30.21 852 25.16 14 57.2 37 -0.3 31.5 0
12:34 1023 30.21 852 25.16 14.1 57.3 38 0.2 32.4 0
12:35 1023 30.21 852 25.16 14.2 57.6 38 0.1 32.2 0
12:36 1023 30.21 852 25.16 14.3 57.7 37 -0.3 31.4 0
12:37 1023 30.21 852 25.16 14.2 57.6 38 0.3 32.6 0
12:38 1023 30.21 852 25.16 14.3 57.7 41 1.3 34.4 0
12:39 1023 30.21 852 25.16 14.3 57.8 34 -1.3 29.6 0
12:40 1023 30.21 852 25.16 14.2 57.6 36 -0.5 31.2 0
12:41 1023 30.21 852 25.16 14.4 57.8 37 -0 31.9 0
12:42 1023 30.21 852 25.16 14.4 57.9 37 -0.2 31.6 0
12:43 1023 30.21 852 25.16 14.4 58 31 -2.3 27.9 0
12:44 1023 30.21 852 25.16 14.4 58 33 -1.6 29.2 0
12:45 1023 30.21 852 25.16 14.5 58 40 1.1 33.9 0
12:46 1023 30.21 852 25.16 14.6 58.3 39 0.9 33.7 0
12:47 1023 30.21 852 25.16 14.8 58.6 39 1 33.8 0
12:48 1023 30.21 852 25.16 15 58.9 36 0.3 32.5 0
12:49 1023 30.21 852 25.16 14.9 58.9 34 -0.5 31 0
12:50 1023 30.21 852 25.16 14.9 58.9 33 -1.2 29.8 0
12:51 1023 30.21 852 25.16 14.9 58.8 33 -1 30.1 0
12:52 1023 30.21 852 25.16 14.8 58.7 33 -1.1 30 0
12:53 1023 30.21 852 25.16 14.9 58.7 33 -1.1 30.1 0
12:54 1023 30.21 852 25.16 14.8 58.6 36 -0.1 31.8 0
12:55 1023 30.21 852 25.16 14.9 58.8 35 -0.6 31 0
12:56 1023 30.21 852 25.16 14.9 58.8 38 0.9 33.6 0
12:57 1023 30.21 852 25.16 15 59.1 35 -0 32 0
12:58 1023 30.21 852 25.16 15.1 59.2 38 1 33.8 0
12:59 1023 30.21 852 25.16 15.1 59.2 35 -0.1 31.9 0
13:00 1023 30.21 852 25.16 15.2 59.4 30 -2 28.4 0
13:01 1023 30.21 852 25.16 15.2 59.3 35 0.1 32.1 0
13:02 1023 30.21 852 25.16 15.3 59.5 35 0.1 32.1 0
13:03 1023 30.21 852 25.16 15.4 59.8 32 -0.9 30.3 0
13:04 1023 30.21 852 25.16 15.5 59.9 33 -0.5 31.1 0
13:05 1023 30.21 852 25.16 15.5 60 33 -0.6 30.9 0
13:06 1023 30.21 852 25.16 15.5 59.9 34 -0 32 0
13:07 1023 30.21 852 25.16 15.6 60 30 -1.7 28.9 0
13:08 1023 30.21 852 25.16 15.5 59.9 29 -2.3 27.9 0
13:09 1023 30.21 852 25.16 15.4 59.8 33 -0.8 30.6 0
13:10 1023 30.21 852 25.16 15.5 59.9 31 -1.6 29.2 0
13:11 1023 30.21 852 25.16 15.5 60 28 -2.6 27.3 0
13:12 1023 30.21 852 25.16 15.3 59.6 29 -2.4 27.7 0
13:13 1023 30.21 852 25.16 15.3 59.5 32 -1.1 30 0
13:14 1023 30.21 852 25.16 15.3 59.6 30 -2.2 28 0
13:15 1023 30.21 852 25.16 15.3 59.5 35 0.2 32.3 0
13:16 1023 30.21 852 25.16 15.5 59.8 32 -1.1 30 0
13:17 1023 30.21 852 25.16 15.6 60 30 -1.8 28.7 0
13:18 1023 30.21 852 25.16 15.6 60 32 -1.2 29.9 0
13:19 1023 30.21 852 25.16 15.5 60 35 0.2 32.3 0
13:20 1023 30.21 852 25.16 15.6 60.1 32 -0.9 30.4 0
13:21 1023 30.21 852 25.16 15.6 60.1 31 -1.2 29.9 0
13:22 1023 30.21 852 25.16 15.6 60.1 32 -1.1 30 0
13:23 1023 30.21 852 25.16 15.6 60.2 31 -1.2 29.8 0
13:24 1023 30.21 852 25.16 15.7 60.3 31 -1.1 30.1 0
13:25 1023 30.21 852 25.16 15.7 60.2 31 -1.4 29.4 0
13:26 1023 30.21 852 25.16 15.7 60.3 30 -1.6 29.2 0
13:27 1023 30.21 852 25.16 15.8 60.4 33 -0.5 31.2 0
13:28 1023 30.21 852 25.16 16 60.7 28 -2.5 27.5 0
13:29 1023 30.21 852 25.16 15.9 60.6 30 -1.8 28.8 0
13:30 1022 30.18 852 25.16 15.7 60.3 30 -1.8 28.7 0
13:31 1022 30.18 852 25.16 15.7 60.3 31 -1.3 29.7 0
13:32 1022 30.18 852 25.16 15.7 60.2 28 -2.5 27.4 0
13:33 1022 30.18 852 25.16 15.6 60.1 29 -2.1 28.2 0
13:34 1022 30.18 852 25.16 15.7 60.2 31 -1.5 29.2 0
13:35 1022 30.18 852 25.16 15.8 60.5 35 0.6 33 0
13:36 1022 30.18 852 25.16 16.1 60.9 29 -1.7 29 0
13:37 1022 30.18 852 25.16 16.2 61.1 30 -1.3 29.6 0
13:38 1022 30.18 852 25.16 16.2 61.1 31 -0.9 30.4 0
13:39 1022 30.18 852 25.16 16.1 61 29 -2 28.4 0
13:40 1022 30.18 852 25.16 16.1 61 31 -0.8 30.5 0
13:41 1022 30.18 852 25.16 16.2 61.1 31 -1 30.3 0
13:42 1022 30.18 852 25.16 16.2 61.1 35 0.6 33.1 0
13:43 1022 30.18 852 25.16 16.2 61.2 29 -1.6 29.1 0
13:44 1022 30.18 852 25.16 16.2 61.1 31 -0.9 30.4 0
13:45 1022 30.18 852 25.16 16.2 61.1 33 0.2 32.3 0
13:46 1022 30.18 852 25.16 16.2 61.2 33 -0.1 31.7 0
13:47 1022 30.18 852 25.16 16.3 61.3 30 -1.3 29.7 0
13:48 1022 30.18 851 25.13 16.2 61.2 31 -0.7 30.7 0
13:49 1022 30.18 851 25.13 16.2 61.1 32 -0.5 31.2 0
13:50 1022 30.18 851 25.13 16.2 61.1 30 -1.5 29.3 0
13:51 1022 30.18 851 25.13 16.2 61.1 30 -1.3 29.7 0
13:52 1022 30.18 851 25.13 16.1 60.9 27 -2.7 27.2 0
13:53 1022 30.18 851 25.13 16 60.8 29 -1.7 28.9 0
13:54 1022 30.18 851 25.13 16 60.9 31 -1 30.1 0
13:55 1022 30.18 851 25.13 16.1 61 30 -1.3 29.7 0
13:56 1022 30.18 851 25.13 16.1 61 30 -1.2 29.8 0
13:57 1022 30.18 851 25.13 16.2 61.1 29 -1.9 28.7 0
13:58 1022 30.18 851 25.13 16.1 61 28 -2.2 28.1 0
13:59 1022 30.18 851 25.13 16.2 61.1 30 -1.5 29.3 0
14:00 1022 30.18 851 25.13 16.3 61.3 29 -1.7 28.9 0
14:01 1022 30.18 851 25.13 16.3 61.3 29 -1.5 29.3 0
14:02 1022 30.18 851 25.13 16.3 61.3 29 -1.9 28.7 0
14:03 1022 30.18 851 25.13 16.4 61.5 29 -1.4 29.4 0
14:04 1022 30.18 851 25.13 16.5 61.7 28 -1.9 28.6 0
14:05 1022 30.18 851 25.13 16.6 61.8 27 -2.3 27.9 0
14:06 1022 30.18 851 25.13 16.6 61.9 28 -1.8 28.8 0
14:07 1022 30.18 851 25.13 16.6 61.9 29 -1.2 29.9 0
14:08 1022 30.18 851 25.13 16.6 61.9 32 -0.1 31.8 0
14:09 1022 30.18 851 25.13 16.7 62 29 -1.2 29.8 0
14:10 1022 30.18 851 25.13 16.6 61.9 28 -1.9 28.6 0
14:11 1022 30.18 851 25.13 16.6 61.8 30 -1.2 29.9 0
14:12 1022 30.18 851 25.13 16.5 61.8 29 -1.4 29.5 0
14:13 1022 30.18 851 25.13 16.4 61.6 28 -2 28.4 0
14:14 1022 30.18 851 25.13 16.3 61.4 29 -1.7 29 0
14:15 1022 30.18 851 25.13 16.3 61.4 31 -0.8 30.6 0
14:16 1022 30.18 851 25.13 16.4 61.5 29 -1.4 29.5 0
14:17 1022 30.18 851 25.13 16.5 61.6 32 -0.4 31.4 0
14:18 1022 30.18 851 25.13 16.5 61.8 31 -0.4 31.3 0
14:19 1022 30.18 851 25.13 16.6 61.9 32 -0.2 31.6 0
14:20 1022 30.18 851 25.13 16.6 61.9 28 -2 28.5 0
14:21 1022 30.18 851 25.13 16.5 61.8 30 -1.2 29.9 0
14:22 1022 30.18 851 25.13 16.5 61.6 29 -1.4 29.4 0
14:23 1022 30.18 851 25.13 16.4 61.5 28 -1.8 28.8 0
14:24 1022 30.18 851 25.13 16.3 61.3 31 -0.9 30.4 0
14:25 1022 30.18 851 25.13 16.3 61.4 28 -2.2 28.1 0
14:26 1022 30.18 851 25.13 16.3 61.4 30 -1 30.2 0
14:27 1022 30.18 851 25.13 16.4 61.5 31 -0.6 30.8 0
14:28 1022 30.18 851 25.13 16.5 61.7 30 -1 30.2 0
14:29 1022 30.18 851 25.13 16.7 62 32 0.2 32.4 0
14:30 1022 30.18 851 25.13 16.7 62.1 28 -1.7 28.9 0
14:31 1022 30.18 851 25.13 16.6 61.8 30 -0.8 30.5 0
14:32 1022 30.18 851 25.13 16.6 61.8 27 -2.6 27.3 0
14:33 1022 30.18 851 25.13 16.6 61.8 30 -1 30.1 0
14:34 1022 30.18 851 25.13 16.6 61.9 29 -1.5 29.3 0
14:35 1022 30.18 851 25.13 16.5 61.7 29 -1.3 29.6 0
14:36 1022 30.18 851 25.13 16.5 61.6 30 -1 30.2 0
14:37 1022 30.18 851 25.13 16.4 61.5 32 -0.3 31.4 0
14:38 1022 30.18 851 25.13 16.4 61.6 30 -1.1 30.1 0
14:39 1022 30.18 851 25.13 16.4 61.6 28 -2 28.3 0
14:40 1022 30.18 851 25.13 16.4 61.5 29 -1.4 29.5 0
14:41 1022 30.18 851 25.13 16.4 61.6 31 -0.7 30.7 0
14:42 1022 30.18 851 25.13 16.6 61.9 31 -0.3 31.5 0
14:43 1022 30.18 851 25.13 16.7 62.1 30 -0.9 30.4 0
14:44 1022 30.18 851 25.13 16.6 61.9 27 -2.3 27.8 0
14:45 1022 30.18 851 25.13 16.4 61.6 30 -0.9 30.3 0
14:46 1022 30.18 851 25.13 16.3 61.3 30 -1.2 29.9 0
14:47 1022 30.18 851 25.13 16.2 61.1 31 -0.8 30.6 0
14:48 1022 30.18 851 25.13 16.2 61.1 30 -1.3 29.6 0
14:49 1022 30.18 851 25.13 16.1 61 31 -0.8 30.6 0
14:50 1022 30.18 851 25.13 16.1 61 30 -1.2 29.8 0
14:51 1022 30.18 851 25.13 16 60.9 29 -1.9 28.6 0
14:52 1022 30.18 851 25.13 16 60.7 30 -1.5 29.3 0
14:53 1022 30.18 851 25.13 15.9 60.6 30 -1.6 29.1 0
14:54 1022 30.18 851 25.13 15.9 60.7 31 -1.2 29.8 0
14:55 1022 30.18 851 25.13 15.9 60.6 29 -2 28.5 0
14:56 1022 30.18 851 25.13 15.9 60.5 31 -1.2 29.8 0
14:57 1022 30.18 851 25.13 15.8 60.5 33 -0.5 31.2 0
14:58 1022 30.18 851 25.13 15.9 60.5 30 -1.8 28.8 0
14:59 1022 30.18 851 25.13 15.8 60.5 32 -0.7 30.8 0
15:00 1022 30.18 851 25.13 15.8 60.5 32 -0.8 30.6 0
15:01 1022 30.18 851 25.13 15.7 60.3 30 -1.9 28.7 0
15:02 1022 30.18 851 25.13 15.6 60.1 31 -1.3 29.7 0
15:03 1022 30.18 851 25.13 15.5 60 31 -1.4 29.5 0
15:04 1022 30.18 851 25.13 15.5 59.8 31 -1.6 29.2 0
15:05 1022 30.18 851 25.13 15.4 59.7 32 -1.1 30.1 0
15:06 1022 30.18 851 25.13 15.4 59.7 32 -1 30.3 0
15:07 1022 30.18 851 25.13 15.4 59.7 34 -0.5 31.2 0
15:08 1022 30.18 851 25.13 15.5 59.8 34 -0.2 31.6 0
15:09 1022 30.18 851 25.13 15.4 59.8 34 -0.2 31.7 0
15:10 1022 30.18 851 25.13 15.3 59.5 36 0.5 32.9 0
15:11 1022 30.18 851 25.13 15.1 59.2 37 0.8 33.4 0
15:12 1022 30.18 851 25.13 15 59.1 35 -0.1 31.8 0
15:13 1022 30.18 851 25.13 15 58.9 34 -0.8 30.5 0
15:14 1022 30.18 851 25.13 14.8 58.7 37 0.4 32.7 0
15:15 1022 30.18 851 25.13 14.7 58.5 35 -0.6 30.9 0
15:16 1022 30.18 851 25.13 14.7 58.4 36 -0.2 31.6 0
15:17 1022 30.18 851 25.13 14.6 58.3 35 -0.6 31 0
15:18 1022 30.18 851 25.13 14.5 58.2 36 -0.3 31.5 0
15:19 1022 30.18 851 25.13 14.5 58 35 -0.6 30.9 0
15:20 1022 30.18 851 25.13 14.4 57.9 37 -0.1 31.8 0
15:21 1022 30.18 851 25.13 14.3 57.7 33 -1.5 29.3 0
15:22 1022 30.18 851 25.13 14.3 57.8 36 -0.4 31.3 0
15:23 1022 30.18 851 25.13 14.3 57.7 36 -0.4 31.3 0
15:24 1022 30.18 851 25.13 14.3 57.8 38 0.2 32.3 0
15:25 1022 30.18 851 25.13 14.3 57.8 36 -0.6 30.9 0
15:26 1022 30.18 851 25.13 14.3 57.8 38 0.1 32.2 0
15:27 1022 30.18 851 25.13 14.3 57.8 35 -1 30.2 0
15:28 1022 30.18 851 25.13 14.4 57.8 35 -0.9 30.3 0
15:29 1022 30.18 851 25.13 14.4 57.9 36 -0.5 31 0
15:30 1022 30.18 851 25.13 14.4 58 36 -0.5 31.1 0
15:31 1022 30.18 851 25.13 14.4 58 37 -0.1 31.8 0
15:32 1022 30.18 851 25.13 14.5 58 36 -0.2 31.7 0
15:33 1022 30.18 851 25.13 14.5 58.1 40 1.2 34.2 0
15:34 1022 30.18 851 25.13 14.5 58.1 37 0.1 32.2 0
15:35 1022 30.18 851 25.13 14.5 58.1 34 -1 30.2 0
15:36 1022 30.18 851 25.13 14.5 58 34 -1.2 29.8 0
15:37 1022 30.18 851 25.13 14.4 57.9 35 -0.7 30.8 0
15:38 1022 30.18 851 25.13 14.3 57.8 36 -0.5 31 0
15:39 1022 30.18 851 25.13 14.3 57.7 37 -0.2 31.7 0
15:40 1022 30.18 851 25.13 14.2 57.5 37 -0.4 31.3 0
15:41 1022 30.18 851 25.13 14.1 57.4 36 -0.8 30.6 0
15:42 1022 30.18 851 25.13 14 57.3 38 0.1 32.2 0
15:43 1022 30.18 851 25.13 14 57.1 36 -0.8 30.6 0
15:44 1022 30.18 851 25.13 13.9 57 38 -0.3 31.5 0
15:45 1022 30.18 851 25.13 13.9 57 35 -1.2 29.8 0
15:46 1022 30.18 851 25.13 13.9 57 37 -0.6 30.9 0
15:47 1022 30.18 851 25.13 14 57.2 36 -0.8 30.6 0
15:48 1022 30.18 851 25.13 14.2 57.5 36 -0.6 31 0
15:49 1022 30.18 851 25.13 14.3 57.8 39 0.7 33.3 0
15:50 1022 30.18 851 25.13 14.5 58.1 40 1.3 34.3 0
15:51 1022 30.18 851 25.13 14.7 58.4 36 -0.2 31.6 0
15:52 1022 30.18 851 25.13 14.9 58.8 34 -0.8 30.6 0
15:53 1022 30.18 851 25.13 15.1 59.1 31 -2 28.4 0
15:54 1022 30.18 851 25.13 15.2 59.3 32 -1.3 29.7 0
15:55 1022 30.18 851 25.13 15.2 59.4 37 0.8 33.4 0
15:56 1022 30.18 851 25.13 15.4 59.7 30 -2.1 28.2 0
15:57 1022 30.18 851 25.13 15.5 60 36 0.7 33.2 0
15:58 1022 30.18 851 25.13 15.7 60.2 30 -2 28.4 0
15:59 1022 30.18 851 25.13 15.7 60.2 33 -0.4 31.3 0
16:00 1022 30.18 851 25.13 15.8 60.4 30 -1.7 28.9 0
16:01 1022 30.18 851 25.13 15.8 60.4 32 -1 30.3 0
16:02 1022 30.18 851 25.13 15.8 60.4 33 -0.3 31.4 0
16:03 1022 30.18 851 25.13 16 60.7 33 -0.1 31.8 0
16:04 1022 30.18 851 25.13 16.1 61 32 -0.7 30.8 0
16:05 1022 30.18 851 25.13 16.2 61.1 31 -1 30.3 0
16:06 1022 30.18 851 25.13 16.1 61 30 -1.3 29.7 0
16:07 1022 30.18 851 25.13 16 60.9 29 -2.1 28.3 0
16:08 1022 30.18 851 25.13 16 60.7 30 -1.3 29.6 0
16:09 1022 30.18 851 25.13 16.1 60.9 30 -1.6 29.2 0
16:10 1022 30.18 851 25.13 16.1 61 30 -1.4 29.5 0
16:11 1022 30.18 851 25.13 16.2 61.1 31 -0.8 30.6 0
16:12 1022 30.18 851 25.13 16.3 61.4 29 -1.6 29.1 0
16:13 1022 30.18 851 25.13 16.4 61.6 28 -2.2 28.1 0
16:14 1022 30.18 851 25.13 16.4 61.6 29 -1.7 29 0
16:15 1022 30.18 851 25.13 16.6 61.8 32 -0.1 31.9 0
16:16 1022 30.18 851 25.13 16.7 62.1 32 0 32 0
16:17 1022 30.18 851 25.13 16.8 62.2 31 -0.5 31.1 0
16:18 1022 30.18 851 25.13 16.7 62.1 31 -0.4 31.2 0
16:19 1022 30.18 851 25.13 16.8 62.2 27 -2.1 28.3 0
16:20 1022 30.18 851 25.13 16.8 62.2 28 -1.8 28.7 0
16:21 1022 30.18 851 25.13 16.8 62.3 27 -1.9 28.5 0
16:22 1022 30.18 851 25.13 17 62.7 28 -1.6 29.1 0
16:23 1022 30.18 851 25.13 17.3 63.1 26 -2.3 27.9 0
16:24 1022 30.18 851 25.13 17.4 63.3 29 -0.8 30.5 0
16:25 1022 30.18 851 25.13 17.3 63.2 26 -2.5 27.5 0
16:26 1022 30.18 851 25.13 17.2 62.9 28 -1.5 29.3 0
16:27 1022 30.18 851 25.13 17.1 62.8 27 -1.8 28.7 0
16:28 1022 30.18 851 25.13 17.2 62.9 29 -0.7 30.7 0
16:29 1022 30.18 851 25.13 17.2 63 29 -1.1 30.1 0
16:30 1022 30.18 851 25.13 17.2 62.9 27 -1.8 28.8 0
16:31 1022 30.18 851 25.13 17.2 62.9 26 -2.6 27.4 0
16:32 1022 30.18 851 25.13 17.2 63 28 -1.4 29.5 0
16:33 1022 30.18 851 25.13 17.2 63 27 -1.6 29.2 0
16:34 1022 30.18 851 25.13 17.2 63 26 -2.5 27.4 0
16:35 1022 30.18 851 25.13 17.1 62.9 29 -1.1 30 0
16:36 1022 30.18 851 25.13 17.1 62.9 30 -0.5 31 0
16:37 1022 30.18 851 25.13 17.2 62.9 26 -2.4 27.6 0
16:38 1022 30.18 851 25.13 17.1 62.8 25 -3.1 26.5 0
16:39 1022 30.18 851 25.13 17.2 62.9 27 -1.7 29 0
16:40 1022 30.18 851 25.13 17.4 63.2 28 -1.3 29.6 0
16:41 1022 30.18 851 25.13 17.5 63.4 27 -1.6 29.1 0
16:42 1022 30.18 851 25.13 17.4 63.4 25 -2.4 27.6 0
16:43 1022 30.18 851 25.13 17.4 63.3 28 -1.1 30 0
16:44 1022 30.18 851 25.13 17.5 63.5 25 -2.9 26.8 0
16:45 1022 30.18 851 25.13 17.5 63.4 27 -1.7 29 0
16:46 1022 30.18 851 25.13 17.4 63.3 26 -2 28.5 0
16:47 1022 30.18 851 25.13 17.4 63.3 25 -2.6 27.4 0
16:48 1022 30.18 851 25.13 17.4 63.3 28 -1.3 29.6 0
16:49 1022 30.18 851 25.13 17.4 63.2 26 -2.3 27.8 0
16:50 1022 30.18 851 25.13 17.2 63 26 -2.5 27.5 0
16:51 1022 30.18 851 25.13 17.2 62.9 25 -2.7 27.1 0
16:52 1022 30.18 851 25.13 17.3 63.1 26 -2.1 28.2 0
16:53 1022 30.18 851 25.13 17.3 63.1 28 -1.4 29.5 0
16:54 1022 30.18 851 25.13 17.3 63.2 28 -1.1 30 0
16:55 1022 30.18 851 25.13 17.4 63.4 27 -1.7 28.9 0
16:56 1022 30.18 851 25.13 17.5 63.4 28 -1.1 30 0
16:57 1022 30.18 851 25.13 17.5 63.5 26 -1.9 28.5 0
16:58 1022 30.18 851 25.13 17.6 63.6 28 -1.1 29.9 0
16:59 1022 30.18 851 25.13 17.6 63.7 28 -1 30.1 0
17:00 1022 30.18 851 25.13 17.6 63.6 31 0.3 32.6 0
17:01 1022 30.18 851 25.13 17.4 63.3 28 -1 30.2 0
17:02 1022 30.18 851 25.13 17.4 63.2 27 -1.9 28.6 0
17:03 1022 30.18 851 25.13 17.3 63.1 28 -1.5 29.3 0
17:04 1022 30.18 851 25.13 17 62.7 30 -0.3 31.4 0
17:05 1022 30.18 851 25.13 16.8 62.3 28 -1.5 29.4 0
17:06 1022 30.18 851 25.13 16.7 62 30 -1.1 30.1 0
17:07 1022 30.18 851 25.13 16.7 62 28 -1.8 28.8 0
17:08 1022 30.18 851 25.13 16.7 62 31 -0.3 31.5 0
17:09 1022 30.18 851 25.13 16.8 62.2 33 0.6 33 0
17:10 1022 30.18 851 25.13 16.7 62.1 29 -1.5 29.4 0
17:11 1022 30.18 851 25.13 16.6 61.9 29 -1.2 29.8 0
17:12 1022 30.18 851 25.13 16.6 61.8 30 -0.9 30.3 0
17:13 1022 30.18 851 25.13 16.6 61.9 30 -1.1 30.1 0
17:14 1022 30.18 851 25.13 16.8 62.3 27 -2.2 28 0
17:15 1022 30.18 851 25.13 17 62.5 26 -2.8 27 0
17:16 1022 30.18 851 25.13 17.1 62.8 26 -2.6 27.3 0
17:17 1022 30.18 851 25.13 17.1 62.8 26 -2.6 27.3 0
17:18 1022 30.18 851 25.13 17.1 62.8 26 -2.2 28 0
17:19 1022 30.18 851 25.13 17.2 63 27 -1.6 29.1 0
17:20 1022 30.18 851 25.13 17.3 63.1 29 -0.6 30.9 0
17:21 1022 30.18 851 25.13 17.3 63.1 30 -0.1 31.8 0
17:22 1022 30.18 851 25.13 17.2 62.9 32 0.4 32.8 0
17:23 1022 30.18 851 25.13 17.2 62.9 32 0.4 32.8 0
17:24 1022 30.18 851 25.13 17.3 63.1 30 -0.4 31.2 0
17:25 1022 30.18 851 25.13 17.2 63 31 -0.1 31.9 0
17:26 1022 30.18 851 25.13 17.1 62.8 31 -0.2 31.6 0
17:27 1022 30.18 851 25.13 17.1 62.7 28 -1.4 29.5 0
17:28 1022 30.18 851 25.13 17 62.6 30 -0.5 31 0
17:29 1022 30.18 851 25.13 17.1 62.7 27 -2 28.3 0
17:30 1022 30.18 851 25.13 17.1 62.8 30 -0.4 31.4 0
17:31 1022 30.18 851 25.13 17.2 62.9 31 -0 31.9 0
17:32 1022 30.18 851 25.13 17.3 63.1 28 -1.2 29.8 0
17:33 1022 30.18 851 25.13 17.3 63.1 28 -1.3 29.7 0
17:34 1022 30.18 851 25.13 17.3 63.1 28 -1.4 29.5 0
17:35 1022 30.18 851 25.13 17.2 63 30 -0.3 31.5 0
17:36 1022 30.18 851 25.13 17.2 62.9 32 0.3 32.5 0
17:37 1022 30.18 851 25.13 17.1 62.9 29 -1 30.1 0
17:38 1022 30.18 851 25.13 17.1 62.7 29 -1 30.2 0
17:39 1022 30.18 851 25.13 17 62.7 28 -1.5 29.4 0
17:40 1022 30.18 851 25.13 17 62.7 31 -0.1 31.8 0
17:41 1022 30.18 851 25.13 17.1 62.7 32 0.2 32.3 0
17:42 1022 30.18 851 25.13 17 62.6 31 0 32 0
17:43 1022 30.18 851 25.13 16.8 62.3 34 1.2 34.1 0
17:44 1022 30.18 851 25.13 16.8 62.2 32 0.3 32.5 0
17:45 1022 30.18 851 25.13 16.8 62.2 33 0.7 33.2 0
17:46 1022 30.18 851 25.13 17 62.5 31 -0.3 31.5 0
17:47 1022 30.18 851 25.13 17.1 62.8 34 1.1 34.1 0
17:48 1022 30.18 851 25.13 17.2 63 36 2.2 36 0
17:49 1022 30.18 851 25.13 17.3 63.1 34 1.5 34.7 0
17:50 1022 30.18 851 25.13 17.3 63.1 33 0.9 33.6 0
17:51 1022 30.18 851 25.13 17.3 63.1 36 2.1 35.7 0
17:52 1022 30.18 851 25.13 17.3 63.1 35 1.9 35.3 0
17:53 1022 30.18 851 25.13 17.2 63 36 2.2 36 0
17:54 1022 30.18 851 25.13 17.2 62.9 37 2.4 36.2 0
17:55 1022 30.18 851 25.13 17.2 62.9 37 2.6 36.6 0
17:56 1022 30.18 851 25.13 17.2 63 36 2.3 36.2 0
17:57 1022 30.18 851 25.13 17.2 62.9 32 0.6 33 0
17:58 1022 30.18 851 25.13 17.2 62.9 32 0.4 32.8 0
17:59 1022 30.18 851 25.13 17.2 63 31 0.1 32.2 0
18:00 1022 30.18 851 25.13 17.2 63 32 0.6 33 0
18:01 1022 30.18 851 25.13 17.2 62.9 32 0.4 32.7 0
18:02 1022 30.18 851 25.13 17.2 62.9 36 1.9 35.5 0
18:03 1022 30.18 851 25.13 17.2 62.9 33 0.7 33.3 0
18:04 1022 30.18 851 25.13 17.1 62.8 35 1.6 34.8 0
18:05 1022 30.18 851 25.13 17.1 62.7 35 1.5 34.7 0
18:06 1022 30.18 851 25.13 17 62.5 35 1.5 34.7 0
18:07 1022 30.18 851 25.13 16.9 62.4 29 -1.2 29.9 0
18:08 1022 30.18 851 25.13 16.9 62.4 32 0 32 0
18:09 1022 30.18 851 25.13 16.9 62.4 30 -0.9 30.4 0
18:10 1022 30.18 851 25.13 16.9 62.5 35 1.5 34.8 0
18:11 1022 30.18 851 25.13 17 62.7 34 1.2 34.1 0
18:12 1022 30.18 851 25.13 17 62.6 28 -1.5 29.3 0
18:13 1022 30.18 851 25.13 16.9 62.3 33 0.6 33 0
18:14 1022 30.18 851 25.13 16.8 62.2 36 1.8 35.2 0
18:15 1022 30.18 851 25.13 16.7 62 33 0.4 32.7 0
18:16 1022 30.18 851 25.13 16.6 61.9 28 -1.7 28.9 0
18:17 1022 30.18 851 25.13 16.7 62.1 29 -1.2 29.8 0
18:18 1022 30.18 851 25.13 16.9 62.3 29 -1 30.2 0
18:19 1022 30.18 851 25.13 16.9 62.4 32 0.1 32.1 0
18:20 1022 30.18 851 25.13 16.8 62.3 31 -0.2 31.6 0
18:21 1022 30.18 851 25.13 16.7 62.1 30 -0.8 30.6 0
18:22 1022 30.18 851 25.13 16.6 61.8 31 -0.6 31 0
18:23 1022 30.18 851 25.13 16.5 61.7 31 -0.4 31.3 0
18:24 1022 30.18 851 25.13 16.4 61.4 30 -1 30.2 0
18:25 1022 30.18 851 25.13 16.4 61.4 32 -0.1 31.8 0
18:26 1022 30.18 851 25.13 16.4 61.4 32 -0.5 31.2 0
18:27 1022 30.18 851 25.13 16.3 61.3 30 -1.1 30.1 0
18:28 1022 30.18 851 25.13 16.3 61.3 31 -0.8 30.6 0
18:29 1022 30.18 851 25.13 16.2 61.2 34 0.5 32.9 0
18:30 1022 30.18 851 25.13 16.1 61 32 -0.5 31.1 0
18:31 1022 30.18 851 25.13 16.1 60.9 32 -0.5 31 0
18:32 1022 30.18 851 25.13 16.1 61.1 32 -0.4 31.4 0
18:33 1022 30.18 851 25.13 16.2 61.2 31 -0.9 30.3 0
18:34 1022 30.18 851 25.13 16.3 61.3 32 -0.5 31.2 0
18:35 1022 30.18 851 25.13 16.3 61.4 32 -0.4 31.3 0
18:36 1022 30.18 851 25.13 16.2 61.1 36 1.4 34.5 0
18:37 1022 30.18 851 25.13 15.9 60.6 38 1.5 34.8 0
18:38 1022 30.18 851 25.13 15.6 60.1 38 1.5 34.8 0
18:39 1022 30.18 851 25.13 15.4 59.7 38 1.2 34.2 0
18:40 1022 30.18 851 25.13 15.3 59.5 39 1.4 34.4 0
18:41 1022 30.18 851 25.13 15.2 59.3 40 1.9 35.4 0
18:42 1022 30.18 851 25.13 15 59 40 1.6 34.9 0
18:43 1022 30.18 851 25.13 14.8 58.7 40 1.3 34.4 0
18:44 1022 30.18 851 25.13 14.7 58.5 40 1.3 34.4 0
18:45 1022 30.18 851 25.13 14.7 58.4 40 1.4 34.6 0
18:46 1022 30.18 851 25.13 14.6 58.3 38 0.5 32.9 0
18:47 1022 30.18 851 25.13 14.6 58.4 38 0.5 32.8 0
18:48 1022 30.18 851 25.13 14.7 58.4 38 0.4 32.8 0
18:49 1022 30.18 851 25.13 14.6 58.2 40 1 33.9 0
18:50 1022 30.18 851 25.13 14.5 58 39 0.9 33.7 0
18:51 1022 30.18 851 25.13 14.3 57.7 40 1.1 34 0
18:52 1022 30.18 851 25.13 14.1 57.3 41 1.1 34 0
18:53 1022 30.18 851 25.13 13.9 57 41 1.1 34 0
18:54 1022 30.18 851 25.13 13.7 56.6 43 1.4 34.5 0
18:55 1022 30.18 851 25.13 13.5 56.3 43 1.2 34.1 0
18:56 1022 30.18 851 25.13 13.3 55.9 43 1.2 34.1 0
18:57 1022 30.18 851 25.13 13.1 55.6 44 1.2 34.2 0
18:58 1022 30.18 851 25.13 12.9 55.3 44 1 33.8 0
18:59 1022 30.18 851 25.13 12.8 55 44 0.9 33.6 0
19:00 1022 30.18 851 25.13 12.7 54.8 45 1.1 33.9 0
19:01 1022 30.18 851 25.13 12.5 54.5 46 1.2 34.1 0
19:02 1022 30.18 851 25.13 12.3 54.2 45 0.8 33.5 0
19:03 1022 30.18 851 25.13 12.2 54 45 0.8 33.5 0
19:04 1022 30.18 851 25.13 12.2 54 45 0.8 33.4 0
19:05 1022 30.18 851 25.13 12.1 53.8 46 0.8 33.4 0
19:06 1022 30.18 851 25.13 12.1 53.7 46 0.8 33.5 0
19:07 1022 30.18 851 25.13 12.1 53.7 46 0.7 33.3 0
19:08 1022 30.18 851 25.13 12 53.6 45 0.6 33 0
19:09 1022 30.18 851 25.13 11.9 53.4 45 0.4 32.6 0
19:10 1022 30.18 851 25.13 11.8 53.2 46 0.6 33.1 0
19:11 1022 30.18 851 25.13 11.7 53 47 0.7 33.3 0
19:12 1022 30.18 851 25.13 11.6 52.8 48 0.9 33.6 0
19:13 1022 30.18 851 25.13 11.4 52.5 47 0.7 33.3 0
19:14 1022 30.18 851 25.13 11.3 52.4 48 0.7 33.2 0
19:15 1022 30.18 851 25.13 11.2 52.2 48 0.5 32.9 0
19:16 1022 30.18 851 25.13 11.1 52 48 0.5 32.9 0
19:17 1022 30.18 851 25.13 11.1 51.9 48 0.6 33.1 0
19:18 1022 30.18 851 25.13 11 51.7 49 0.7 33.3 0
19:19 1022 30.18 851 25.13 10.9 51.6 48 0.4 32.7 0
19:20 1022 30.18 851 25.13 10.8 51.5 48 0.3 32.6 0
19:21 1022 30.18 851 25.13 10.8 51.4 48 0.3 32.6 0
19:22 1022 30.18 851 25.13 10.8 51.4 48 0.2 32.4 0
19:23 1022 30.18 851 25.13 10.7 51.3 48 0.2 32.4 0
19:24 1022 30.18 851 25.13 10.7 51.2 48 0.3 32.5 0
19:25 1022 30.18 851 25.13 10.6 51.1 49 0.4 32.8 0
19:26 1022 30.18 851 25.13 10.6 51 49 0.2 32.4 0
19:27 1022 30.18 851 25.13 10.6 51 48 0.2 32.4 0
19:28 1022 30.18 851 25.13 10.6 51.1 48 0 32 0
19:29 1022 30.18 851 25.13 10.7 51.3 48 0.2 32.4 0
19:30 1022 30.18 851 25.13 10.8 51.4 47 0 32 0
19:31 1022 30.18 851 25.13 10.8 51.5 46 -0.2 31.7 0
19:32 1022 30.18 851 25.13 10.8 51.5 47 -0.1 31.8 0
19:33 1022 30.18 851 25.13 10.7 51.2 48 0.2 32.4 0
19:34 1022 30.18 851 25.13 10.4 50.7 51 0.7 33.2 0
19:35 1022 30.18 851 25.13 10 50 51 0.3 32.5 0
19:36 1022 30.18 851 25.13 9.8 49.6 51 0.2 32.4 0
19:37 1022 30.18 851 25.13 9.8 49.6 51 0.1 32.3 0
19:38 1022 30.18 851 25.13 9.8 49.7 51 0.1 32.2 0
19:39 1022 30.18 851 25.13 9.8 49.7 51 0.1 32.2 0
19:40 1022 30.18 851 25.13 9.9 49.8 51 0.3 32.5 0
19:41 1022 30.18 851 25.13 9.9 49.7 52 0.4 32.7 0
19:42 1022 30.18 851 25.13 9.8 49.6 51 0.2 32.4 0
19:43 1022 30.18 851 25.13 9.8 49.6 51 0.1 32.1 0
19:44 1022 30.18 851 25.13 9.8 49.6 51 0.2 32.4 0
19:45 1022 30.18 851 25.13 9.9 49.7 51 0.3 32.6 0
19:46 1022 30.18 851 25.13 9.8 49.7 51 0.3 32.6 0
19:47 1022 30.18 851 25.13 9.8 49.6 52 0.4 32.7 0
19:48 1022 30.18 851 25.13 9.7 49.5 53 0.6 33 0
19:49 1022 30.18 851 25.13 9.6 49.2 53 0.5 32.9 0
19:50 1022 30.18 851 25.13 9.4 49 53 0.5 32.9 0
19:51 1022 30.18 851 25.13 9.3 48.8 53 0.4 32.6 0
19:52 1022 30.18 852 25.16 9.3 48.7 54 0.5 32.9 0
19:53 1022 30.18 852 25.16 9.1 48.4 54 0.4 32.8 0
19:54 1022 30.18 852 25.16 9 48.2 56 0.6 33.2 0
19:55 1022 30.18 852 25.16 8.8 47.8 56 0.5 32.9 0
19:56 1022 30.18 852 25.16 8.8 47.9 55 0.4 32.7 0
19:57 1022 30.18 852 25.16 8.8 47.9 56 0.4 32.8 0
19:58 1022 30.18 852 25.16 8.7 47.7 56 0.5 32.8 0
19:59 1022 30.18 852 25.16 8.7 47.6 56 0.4 32.8 0
20:00 1022 30.18 852 25.16 8.6 47.5 57 0.5 32.9 0
20:01 1022 30.18 852 25.16 8.6 47.4 57 0.5 32.9 0
20:02 1022 30.18 852 25.16 8.6 47.4 57 0.5 32.9 0
20:03 1022 30.18 852 25.16 8.5 47.3 57 0.4 32.8 0
20:04 1022 30.18 852 25.16 8.6 47.4 57 0.5 32.8 0
20:05 1022 30.18 852 25.16 8.5 47.4 57 0.5 32.8 0
20:06 1022 30.18 852 25.16 8.6 47.4 57 0.5 32.8 0
20:07 1023 30.21 852 25.16 8.6 47.5 56 0.4 32.7 0
20:08 1023 30.21 852 25.16 8.7 47.7 55 0.3 32.6 0
20:09 1023 30.21 852 25.16 8.8 47.9 55 0.4 32.7 0
20:10 1023 30.21 852 25.16 9 48.2 55 0.4 32.7 0
20:11 1023 30.21 852 25.16 9.1 48.3 54 0.3 32.6 0
20:12 1023 30.21 852 25.16 9.2 48.5 54 0.4 32.7 0
20:13 1023 30.21 852 25.16 9.2 48.6 54 0.4 32.7 0
20:14 1023 30.21 852 25.16 9.3 48.7 54 0.5 32.9 0
20:15 1023 30.21 852 25.16 9.2 48.6 54 0.5 32.9 0
20:16 1023 30.21 852 25.16 9.2 48.5 54 0.3 32.5 0
20:17 1023 30.21 852 25.16 9.2 48.5 54 0.3 32.5 0
20:18 1023 30.21 852 25.16 9.3 48.7 53 0.2 32.3 0
20:19 1023 30.21 852 25.16 9.4 48.8 53 0.3 32.5 0
20:20 1023 30.21 852 25.16 9.4 49 53 0.3 32.6 0
20:21 1023 30.21 852 25.16 9.5 49.1 53 0.3 32.6 0
20:22 1023 30.21 852 25.16 9.5 49.1 52 0.2 32.4 0
20:23 1023 30.21 852 25.16 9.6 49.2 52 0.2 32.4 0
20:24 1023 30.21 852 25.16 9.6 49.3 52 0.3 32.5 0
20:25 1023 30.21 852 25.16 9.6 49.3 53 0.4 32.8 0
20:26 1023 30.21 852 25.16 9.5 49.1 53 0.3 32.6 0
20:27 1023 30.21 852 25.16 9.5 49 52 0.2 32.4 0
20:28 1023 30.21 852 25.16 9.5 49.1 52 0.2 32.4 0
20:29 1023 30.21 852 25.16 9.6 49.2 52 0.3 32.5 0
20:30 1023 30.21 852 25.16 9.6 49.2 52 0.2 32.4 0
20:31 1023 30.21 852 25.16 9.6 49.2 52 0.2 32.4 0
20:32 1023 30.21 852 25.16 9.6 49.3 52 0.2 32.3 0
20:33 1023 30.21 852 25.16 9.7 49.4 51 0 32.1 0
20:34 1023 30.21 852 25.16 9.8 49.6 51 0.1 32.2 0
20:35 1023 30.21 852 25.16 9.9 49.7 51 0.3 32.5 0
20:36 1023 30.21 852 25.16 9.8 49.7 51 0.2 32.4 0
20:37 1023 30.21 852 25.16 9.8 49.6 51 0.2 32.3 0
20:38 1023 30.21 852 25.16 9.7 49.5 51 0.2 32.4 0
20:39 1023 30.21 852 25.16 9.7 49.4 52 0.4 32.6 0
20:40 1023 30.21 852 25.16 9.6 49.2 53 0.4 32.7 0
20:41 1023 30.21 852 25.16 9.4 49 53 0.2 32.4 0
20:42 1023 30.21 852 25.16 9.3 48.8 52 0.2 32.3 0
20:43 1023 30.21 852 25.16 9.4 48.8 52 0.1 32.3 0
20:44 1023 30.21 852 25.16 9.4 48.9 52 0.2 32.3 0
20:45 1023 30.21 852 25.16 9.5 49 52 0.2 32.3 0
20:46 1023 30.21 852 25.16 9.5 49.1 52 0.2 32.4 0
20:47 1023 30.21 852 25.16 9.4 49 53 0.4 32.8 0
20:48 1023 30.21 852 25.16 9.2 48.5 54 0.4 32.7 0
20:49 1023 30.21 852 25.16 8.9 48.1 55 0.4 32.7 0
20:50 1023 30.21 852 25.16 8.7 47.6 55 0.2 32.4 0
20:51 1023 30.21 852 25.16 8.5 47.3 55 0.1 32.2 0
20:52 1023 30.21 852 25.16 8.5 47.2 56 0.1 32.2 0
20:53 1023 30.21 852 25.16 8.4 47.2 55 0.1 32.1 0
20:54 1023 30.21 852 25.16 8.4 47.1 56 0.1 32.2 0
20:55 1023 30.21 852 25.16 8.4 47 56 0.1 32.2 0
20:56 1023 30.21 852 25.16 8.4 47 57 0.2 32.4 0
20:57 1023 30.21 852 25.16 8.3 46.9 57 0.2 32.4 0
20:58 1023 30.21 853 25.19 8.3 47 56 0.2 32.3 0
20:59 1023 30.21 853 25.19 8.3 47 56 0.1 32.2 0
21:00 1023 30.21 853 25.19 8.4 47.1 56 0.3 32.5 0
21:01 1023 30.21 853 25.19 8.4 47.1 57 0.4 32.7 0
21:02 1023 30.21 853 25.19 8.3 46.9 58 0.5 32.9 0
21:03 1023 30.21 853 25.19 8.2 46.7 57 0.2 32.3 0
21:04 1023 30.21 853 25.19 8.2 46.8 57 0.2 32.3 0
21:05 1023 30.21 853 25.19 8.3 47 56 0.1 32.2 0
21:06 1023 30.21 853 25.19 8.4 47.1 56 0.1 32.1 0
21:07 1023 30.21 853 25.19 8.5 47.2 55 0 32 0
21:08 1023 30.21 853 25.19 8.5 47.4 54 -0.2 31.7 0
21:09 1023 30.21 853 25.19 8.7 47.6 54 -0 31.9 0
21:10 1023 30.21 853 25.19 8.7 47.6 54 0 32 0
21:11 1023 30.21 853 25.19 8.5 47.4 55 0.1 32.2 0
21:12 1023 30.21 853 25.19 8.4 47.2 54 -0.3 31.4 0
21:13 1023 30.21 853 25.19 8.7 47.7 54 0 32 0
21:14 1023 30.21 853 25.19 8.7 47.7 55 0.1 32.2 0
21:15 1023 30.21 853 25.19 8.7 47.6 54 -0.1 31.9 0
21:16 1024 30.24 853 25.19 8.8 47.8 54 0 32 0
21:17 1024 30.24 853 25.19 8.8 47.9 54 -0 32 0
21:18 1023 30.21 853 25.19 8.8 47.8 55 0.2 32.4 0
21:19 1024 30.24 853 25.19 8.7 47.6 55 0.1 32.1 0
21:20 1024 30.24 853 25.19 8.7 47.6 54 0 32.1 0
21:21 1024 30.24 853 25.19 8.8 47.8 55 0.2 32.3 0
21:22 1024 30.24 853 25.19 8.8 47.9 55 0.3 32.6 0
21:23 1024 30.24 853 25.19 8.8 47.8 55 0.2 32.4 0
21:24 1024 30.24 853 25.19 8.8 47.8 55 0.2 32.3 0
21:25 1024 30.24 853 25.19 8.7 47.7 55 0.1 32.2 0
21:26 1024 30.24 853 25.19 8.7 47.6 55 0.1 32.1 0
21:27 1024 30.24 853 25.19 8.7 47.6 55 0.2 32.3 0
21:28 1024 30.24 853 25.19 8.5 47.2 56 0.2 32.4 0
21:29 1024 30.24 853 25.19 8.3 47 56 0.2 32.3 0
21:30 1024 30.24 853 25.19 8.3 46.9 56 0 32.1 0
21:31 1024 30.24 853 25.19 8.5 47.2 54 -0.2 31.7 0
21:32 1024 30.24 853 25.19 8.7 47.7 53 -0.2 31.6 0
21:33 1024 30.24 853 25.19 9 48.2 53 0.1 32.1 0
21:34 1024 30.24 853 25.19 9.1 48.3 55 0.4 32.7 0
21:35 1024 30.24 853 25.19 9 48.2 54 0.2 32.4 0
21:36 1024 30.24 853 25.19 8.9 48 54 0.1 32.2 0
21:37 1024 30.24 853 25.19 8.8 47.8 55 0.2 32.3 0
21:38 1024 30.24 853 25.19 8.6 47.5 55 0.1 32.3 0
21:39 1024 30.24 853 25.19 8.4 47.2 56 0.2 32.4 0
21:40 1024 30.24 853 25.19 8.3 46.9 57 0.4 32.7 0
21:41 1024 30.24 853 25.19 8.1 46.6 57 0.1 32.2 0
21:42 1024 30.24 853 25.19 8 46.5 58 0.2 32.4 0
21:43 1024 30.24 853 25.19 7.9 46.2 58 0.1 32.2 0
21:44 1024 30.24 853 25.19 7.9 46.2 58 0.2 32.3 0
21:45 1024 30.24 853 25.19 7.8 46 59 0.2 32.4 0
21:46 1024 30.24 853 25.19 8 46.3 56 -0.2 31.6 0
21:47 1024 30.24 853 25.19 8.1 46.5 57 0.2 32.3 0
21:48 1024 30.24 853 25.19 7.9 46.1 58 0.2 32.3 0
21:49 1024 30.24 853 25.19 7.8 46 58 0 32.1 0
21:50 1024 30.24 853 25.19 7.8 46 58 0 32 0
21:51 1024 30.24 853 25.19 7.8 46 58 0.1 32.1 0
21:52 1024 30.24 853 25.19 7.7 45.9 58 0.1 32.1 0
21:53 1024 30.24 853 25.19 7.7 45.8 59 0.1 32.1 0
21:54 1024 30.24 853 25.19 7.6 45.8 59 0.2 32.3 0
21:55 1024 30.24 853 25.19 7.6 45.6 59 0.1 32.2 0
21:56 1024 30.24 853 25.19 7.5 45.5 59 0.1 32.2 0
21:57 1024 30.24 853 25.19 7.4 45.3 60 0.2 32.4 0
21:58 1024 30.24 853 25.19 7.3 45.2 60 0.2 32.3 0
21:59 1024 30.24 853 25.19 7.4 45.2 60 0.2 32.3 0
22:00 1024 30.24 853 25.19 7.4 45.4 60 0.2 32.4 0
22:01 1024 30.24 853 25.19 7.5 45.5 59 0.1 32.2 0
22:02 1024 30.24 853 25.19 7.7 45.8 59 0.1 32.1 0
22:03 1024 30.24 853 25.19 7.8 46.1 58 0.1 32.2 0
22:04 1024 30.24 853 25.19 7.9 46.3 57 0 32.1 0
22:05 1024 30.24 853 25.19 8.1 46.5 57 0 32.1 0
22:06 1024 30.24 853 25.19 8.1 46.6 57 0.1 32.3 0
22:07 1024 30.24 853 25.19 8.2 46.7 57 0.2 32.3 0
22:08 1024 30.24 853 25.19 8.2 46.7 56 0.1 32.1 0
22:09 1024 30.24 853 25.19 8.2 46.8 56 -0 31.9 0
22:10 1024 30.24 853 25.19 8.3 46.9 57 0.2 32.4 0
22:11 1024 30.24 853 25.19 8 46.5 58 0.4 32.7 0
22:12 1024 30.24 853 25.19 7.8 46 59 0.2 32.3 0
22:13 1024 30.24 853 25.19 7.7 45.8 58 0.1 32.1 0
22:14 1024 30.24 853 25.19 7.7 45.8 59 0.1 32.2 0
22:15 1024 30.24 853 25.19 7.8 46 57 -0.1 31.8 0
22:16 1024 30.24 853 25.19 8 46.4 55 -0.3 31.4 0
22:17 1024 30.24 853 25.19 8.3 46.9 55 -0.3 31.5 0
22:18 1024 30.24 853 25.19 8.4 47.2 55 -0.1 31.9 0
22:19 1024 30.24 853 25.19 8.4 47.2 55 -0.1 31.7 0
22:20 1024 30.24 853 25.19 8.4 47.2 55 0 32.1 0
22:21 1024 30.24 853 25.19 8.4 47.1 54 -0.3 31.5 0
22:22 1024 30.24 853 25.19 8.4 47.2 55 0 32 0
22:23 1024 30.24 853 25.19 8.4 47.1 56 0.1 32.2 0
22:24 1024 30.24 853 25.19 8.2 46.7 56 -0.1 31.9 0
22:25 1024 30.24 853 25.19 8.1 46.7 55 -0.4 31.4 0
22:26 1024 30.24 853 25.19 8.3 46.9 55 -0.2 31.6 0
22:27 1024 30.24 853 25.19 8.3 47 55 -0.1 31.8 0
22:28 1024 30.24 853 25.19 8.3 46.9 55 -0.1 31.8 0
22:29 1024 30.24 853 25.19 8.2 46.7 56 -0.1 31.9 0
22:30 1024 30.24 853 25.19 8.1 46.6 56 -0.1 31.9 0
22:31 1024 30.24 853 25.19 8 46.4 57 -0 31.9 0
22:32 1024 30.24 853 25.19 7.9 46.2 57 0 32 0
22:33 1024 30.24 853 25.19 7.7 45.9 58 0 32 0
22:34 1024 30.24 853 25.19 7.6 45.7 58 -0 32 0
22:35 1024 30.24 853 25.19 7.5 45.5 59 -0 32 0
22:36 1024 30.24 853 25.19 7.5 45.5 59 -0 32 0
22:37 1024 30.24 853 25.19 7.6 45.6 59 -0 31.9 0
22:38 1024 30.24 853 25.19 7.6 45.6 59 0 32.1 0
22:39 1024 30.24 853 25.19 7.6 45.6 59 0.1 32.3 0
22:40 1024 30.24 853 25.19 7.5 45.5 60 0.2 32.4 0
22:41 1024 30.24 853 25.19 7.4 45.3 61 0.4 32.7 0
22:42 1024 30.24 853 25.19 7.2 44.9 62 0.4 32.7 0
22:43 1024 30.24 854 25.22 6.9 44.4 63 0.4 32.7 0
22:44 1024 30.24 854 25.22 6.6 43.9 64 0.4 32.7 0
22:45 1024 30.24 854 25.22 6.4 43.5 65 0.4 32.7 0
22:46 1024 30.24 854 25.22 6.1 43 66 0.3 32.5 0
22:47 1024 30.24 854 25.22 5.9 42.7 67 0.2 32.4 0
22:48 1024 30.24 854 25.22 5.8 42.4 67 0.1 32.2 0
22:49 1024 30.24 854 25.22 5.7 42.2 67 0.1 32.1 0
22:50 1024 30.24 854 25.22 5.6 42.1 67 0.1 32.1 0
22:51 1024 30.24 854 25.22 5.5 42 68 0 32.1 0
22:52 1024 30.24 854 25.22 5.5 41.8 68 -0 32 0
22:53 1024 30.24 854 25.22 5.5 41.8 68 0 32 0
22:54 1024 30.24 854 25.22 5.4 41.8 67 -0.1 31.8 0
22:55 1024 30.24 854 25.22 5.5 41.9 67 -0.1 31.8 0
22:56 1025 30.27 854 25.22 5.5 41.8 67 -0.1 31.8 0
22:57 1025 30.27 854 25.22 5.5 41.8 69 0.2 32.3 0
22:58 1025 30.27 854 25.22 5.4 41.8 67 -0.2 31.6 0
22:59 1025 30.27 854 25.22 5.7 42.3 66 -0.2 31.6 0
23:00 1025 30.27 854 25.22 6 42.8 64 -0.3 31.4 0
23:01 1025 30.27 854 25.22 6.3 43.3 62 -0.3 31.4 0
23:02 1025 30.27 854 25.22 6.5 43.8 62 -0.2 31.6 0
23:03 1025 30.27 854 25.22 6.7 44.1 61 -0.3 31.5 0
23:04 1025 30.27 854 25.22 6.9 44.4 61 -0.2 31.7 0
23:05 1025 30.27 854 25.22 6.9 44.4 61 -0 32 0
23:06 1025 30.27 854 25.22 6.7 44.1 62 -0 31.9 0
23:07 1025 30.27 854 25.22 6.6 43.9 62 -0.1 31.9 0
23:08 1025 30.27 854 25.22 6.6 43.9 63 -0 32 0
23:09 1025 30.27 854 25.22 6.6 43.9 62 -0 31.9 0
23:10 1025 30.27 854 25.22 6.6 44 62 -0 32 0
23:11 1025 30.27 854 25.22 6.7 44 62 -0.1 31.9 0
23:12 1025 30.27 854 25.22 6.7 44.1 62 -0.1 31.9 0
23:13 1025 30.27 854 25.22 6.7 44.1 62 0.1 32.1 0
23:14 1025 30.27 854 25.22 6.5 43.8 62 -0.1 31.8 0
23:15 1025 30.27 854 25.22 6.5 43.6 63 -0.1 31.8 0
23:16 1025 30.27 854 25.22 6.4 43.5 63 -0.1 31.8 0
23:17 1025 30.27 854 25.22 6.3 43.4 63 -0.2 31.7 0
23:18 1025 30.27 854 25.22 6.3 43.3 63 -0.2 31.7 0
23:19 1025 30.27 854 25.22 6.1 43.1 64 -0.1 31.7 0
23:20 1025 30.27 854 25.22 6 42.8 65 -0.2 31.7 0
23:21 1025 30.27 854 25.22 5.8 42.5 65 -0.1 31.7 0
23:22 1025 30.27 854 25.22 5.5 41.8 67 -0.2 31.7 0
23:23 1025 30.27 854 25.22 5.2 41.3 68 -0.2 31.7 0
23:24 1025 30.27 854 25.22 4.9 40.9 70 -0.1 31.7 0
23:25 1025 30.27 854 25.22 4.8 40.7 70 -0.2 31.6 0
23:26 1025 30.27 854 25.22 4.9 40.8 69 -0.3 31.5 0
23:27 1025 30.27 854 25.22 5.1 41.3 68 -0.3 31.5 0
23:28 1025 30.27 854 25.22 5.4 41.6 67 -0.3 31.5 0
23:29 1025 30.27 854 25.22 5.5 42 66 -0.2 31.6 0
23:30 1025 30.27 854 25.22 5.5 41.8 67 -0.2 31.6 0
23:31 1025 30.27 854 25.22 5.4 41.8 67 -0.1 31.8 0
23:32 1025 30.27 854 25.22 5.4 41.6 67 -0.3 31.5 0
23:33 1025 30.27 854 25.22 5.5 42 67 -0.2 31.7 0
23:34 1025 30.27 854 25.22 5.6 42 66 -0.3 31.4 0
23:35 1025 30.27 854 25.22 5.8 42.4 65 -0.4 31.3 0
23:36 1025 30.27 854 25.22 6.1 42.9 62 -0.6 30.9 0
23:37 1025 30.27 854 25.22 6.7 44.1 59 -0.8 30.6 0
23:38 1025 30.27 854 25.22 7.4 45.4 56 -0.7 30.8 0
23:39 1025 30.27 854 25.22 7.8 46.1 55 -0.6 30.9 0
23:40 1025 30.27 854 25.22 8.1 46.6 54 -0.5 31 0
23:41 1025 30.27 854 25.22 8.2 46.7 54 -0.5 31.1 0
23:42 1025 30.27 854 25.22 8.1 46.6 54 -0.6 30.9 0
23:43 1025 30.27 854 25.22 8.1 46.5 55 -0.5 31.1 0
23:44 1025 30.27 854 25.22 7.8 46 56 -0.5 31.2 0
23:45 1025 30.27 854 25.22 7.4 45.3 57 -0.5 31.2 0
23:46 1025 30.27 854 25.22 7 44.7 58 -0.5 31 0
23:47 1025 30.27 854 25.22 6.9 44.4 59 -0.6 30.9 0
23:48 1025 30.27 854 25.22 6.8 44.2 59 -0.6 31 0
23:49 1025 30.27 854 25.22 6.7 44 60 -0.6 30.9 0
23:50 1025 30.27 854 25.22 6.7 44 60 -0.6 31 0
23:51 1025 30.27 854 25.22 6.6 43.9 60 -0.6 30.9 0
23:52 1025 30.27 854 25.22 6.7 44 60 -0.5 31.1 0
23:53 1025 30.27 854 25.22 6.6 43.9 60 -0.5 31.1 0
23:54 1025 30.27 854 25.22 6.6 43.8 60 -0.5 31.1 0
23:55 1025 30.27 854 25.22 6.6 44 60 -0.5 31 0
23:56 1025 30.27 854 25.22 6.7 44 60 -0.5 31.1 0
23:57 1025 30.27 854 25.22 6.5 43.8 61 -0.5 31.2 0
23:58 1025 30.27 854 25.22 6.4 43.5 62 -0.4 31.2 0
23:59 1025 30.27 854 25.22 6.1 43 63 -0.4 31.2 0
24:00 1025 30.27 854 25.22 5.9 42.6 64 -0.5 31.1 0